<?xml version="1.0" encoding="UTF-8" standalone="no" ?>
<gpx xmlns="http://www.topografix.com/GPX/1/1" xmlns:xsi="http://www.w3.org/2001/XMLSchema-instance" xsi:schemaLocation="http://www.topografix.com/GPX/1/1 http://www.topografix.com/GPX/1/1/gpx.xsd" version="1.1" creator="VisuGPX - https://www.visugpx.com">
  <metadata>
    <name>Marche 18km</name>
    <desc><![CDATA[Marche ASCU 6 km à ajouter au 12 km Juin 2024]]></desc>
  </metadata>
  <trk>
    <name><![CDATA[Épinal Marche à pied]]></name>
    <trkseg>
      <trkpt lat="48.13332" lon="6.41722">
        <ele>435.20001220703</ele>
        <time>2024-02-11T15:11:02.000Z</time>
      </trkpt>
      <trkpt lat="48.13326" lon="6.41739">
        <ele>435.20001220703</ele>
        <time>2024-02-11T15:11:08.000Z</time>
      </trkpt>
      <trkpt lat="48.13316" lon="6.41755">
        <ele>435.20001220703</ele>
        <time>2024-02-11T15:11:15.000Z</time>
      </trkpt>
      <trkpt lat="48.13316" lon="6.41754">
        <ele>435.39999389648</ele>
        <time>2024-02-11T15:11:16.000Z</time>
      </trkpt>
      <trkpt lat="48.13311" lon="6.41754">
        <ele>435.39999389648</ele>
        <time>2024-02-11T15:11:19.000Z</time>
      </trkpt>
      <trkpt lat="48.13295" lon="6.41768">
        <ele>435.39999389648</ele>
        <time>2024-02-11T15:11:32.000Z</time>
      </trkpt>
      <trkpt lat="48.13278" lon="6.41776">
        <ele>435.60000610352</ele>
        <time>2024-02-11T15:11:48.000Z</time>
      </trkpt>
      <trkpt lat="48.13278" lon="6.41776">
        <ele>435.79998779297</ele>
        <time>2024-02-11T15:11:49.000Z</time>
      </trkpt>
      <trkpt lat="48.13275" lon="6.41778">
        <ele>436</ele>
        <time>2024-02-11T15:11:51.000Z</time>
      </trkpt>
      <trkpt lat="48.13257" lon="6.41783">
        <ele>436</ele>
        <time>2024-02-11T15:12:04.000Z</time>
      </trkpt>
      <trkpt lat="48.13248" lon="6.41791">
        <ele>436</ele>
        <time>2024-02-11T15:12:11.000Z</time>
      </trkpt>
      <trkpt lat="48.13235" lon="6.41797">
        <ele>436</ele>
        <time>2024-02-11T15:12:21.000Z</time>
      </trkpt>
      <trkpt lat="48.13233" lon="6.41797">
        <ele>436</ele>
        <time>2024-02-11T15:12:22.000Z</time>
      </trkpt>
      <trkpt lat="48.13231" lon="6.41797">
        <ele>436.20001220703</ele>
        <time>2024-02-11T15:12:24.000Z</time>
      </trkpt>
      <trkpt lat="48.13227" lon="6.41799">
        <ele>436.20001220703</ele>
        <time>2024-02-11T15:12:27.000Z</time>
      </trkpt>
      <trkpt lat="48.13208" lon="6.418">
        <ele>436.60000610352</ele>
        <time>2024-02-11T15:12:41.000Z</time>
      </trkpt>
      <trkpt lat="48.13196" lon="6.41796">
        <ele>436.60000610352</ele>
        <time>2024-02-11T15:12:50.000Z</time>
      </trkpt>
      <trkpt lat="48.13181" lon="6.41788">
        <ele>437.20001220703</ele>
        <time>2024-02-11T15:13:01.000Z</time>
      </trkpt>
      <trkpt lat="48.13175" lon="6.41781">
        <ele>437.60000610352</ele>
        <time>2024-02-11T15:13:06.000Z</time>
      </trkpt>
      <trkpt lat="48.13171" lon="6.41778">
        <ele>437.79998779297</ele>
        <time>2024-02-11T15:13:09.000Z</time>
      </trkpt>
      <trkpt lat="48.13167" lon="6.41776">
        <ele>437.79998779297</ele>
        <time>2024-02-11T15:13:12.000Z</time>
      </trkpt>
      <trkpt lat="48.13159" lon="6.41772">
        <ele>437.79998779297</ele>
        <time>2024-02-11T15:13:18.000Z</time>
      </trkpt>
      <trkpt lat="48.13149" lon="6.41768">
        <ele>438.20001220703</ele>
        <time>2024-02-11T15:13:26.000Z</time>
      </trkpt>
      <trkpt lat="48.13138" lon="6.41765">
        <ele>438.20001220703</ele>
        <time>2024-02-11T15:13:33.000Z</time>
      </trkpt>
      <trkpt lat="48.13129" lon="6.41761">
        <ele>438.20001220703</ele>
        <time>2024-02-11T15:13:39.000Z</time>
      </trkpt>
      <trkpt lat="48.13115" lon="6.41757">
        <ele>438.20001220703</ele>
        <time>2024-02-11T15:13:48.000Z</time>
      </trkpt>
      <trkpt lat="48.13111" lon="6.41757">
        <ele>438.20001220703</ele>
        <time>2024-02-11T15:13:51.000Z</time>
      </trkpt>
      <trkpt lat="48.13103" lon="6.41757">
        <ele>437.60000610352</ele>
        <time>2024-02-11T15:13:57.000Z</time>
      </trkpt>
      <trkpt lat="48.13092" lon="6.41756">
        <ele>437.79998779297</ele>
        <time>2024-02-11T15:14:04.000Z</time>
      </trkpt>
      <trkpt lat="48.13077" lon="6.41757">
        <ele>437.60000610352</ele>
        <time>2024-02-11T15:14:15.000Z</time>
      </trkpt>
      <trkpt lat="48.13067" lon="6.41759">
        <ele>438</ele>
        <time>2024-02-11T15:14:23.000Z</time>
      </trkpt>
      <trkpt lat="48.1306" lon="6.41767">
        <ele>437.20001220703</ele>
        <time>2024-02-11T15:14:29.000Z</time>
      </trkpt>
      <trkpt lat="48.13059" lon="6.41768">
        <ele>437.20001220703</ele>
        <time>2024-02-11T15:14:30.000Z</time>
      </trkpt>
      <trkpt lat="48.13057" lon="6.41775">
        <ele>436.79998779297</ele>
        <time>2024-02-11T15:14:36.000Z</time>
      </trkpt>
      <trkpt lat="48.13055" lon="6.41783">
        <ele>436.60000610352</ele>
        <time>2024-02-11T15:14:40.000Z</time>
      </trkpt>
      <trkpt lat="48.13055" lon="6.41784">
        <ele>436.39999389648</ele>
        <time>2024-02-11T15:14:41.000Z</time>
      </trkpt>
      <trkpt lat="48.13054" lon="6.4179">
        <ele>436.20001220703</ele>
        <time>2024-02-11T15:14:46.000Z</time>
      </trkpt>
      <trkpt lat="48.13055" lon="6.41795">
        <ele>436</ele>
        <time>2024-02-11T15:14:50.000Z</time>
      </trkpt>
      <trkpt lat="48.13055" lon="6.41796">
        <ele>436</ele>
        <time>2024-02-11T15:14:51.000Z</time>
      </trkpt>
      <trkpt lat="48.13057" lon="6.41805">
        <ele>436</ele>
        <time>2024-02-11T15:14:58.000Z</time>
      </trkpt>
      <trkpt lat="48.13056" lon="6.41814">
        <ele>436.20001220703</ele>
        <time>2024-02-11T15:15:03.000Z</time>
      </trkpt>
      <trkpt lat="48.13056" lon="6.41819">
        <ele>436.39999389648</ele>
        <time>2024-02-11T15:15:09.000Z</time>
      </trkpt>
      <trkpt lat="48.13056" lon="6.41828">
        <ele>436</ele>
        <time>2024-02-11T15:15:15.000Z</time>
      </trkpt>
      <trkpt lat="48.13059" lon="6.41841">
        <ele>436</ele>
        <time>2024-02-11T15:15:21.000Z</time>
      </trkpt>
      <trkpt lat="48.13058" lon="6.4185">
        <ele>436.39999389648</ele>
        <time>2024-02-11T15:15:26.000Z</time>
      </trkpt>
      <trkpt lat="48.13058" lon="6.41855">
        <ele>436.39999389648</ele>
        <time>2024-02-11T15:15:28.000Z</time>
      </trkpt>
      <trkpt lat="48.13058" lon="6.41865">
        <ele>436.39999389648</ele>
        <time>2024-02-11T15:15:32.000Z</time>
      </trkpt>
      <trkpt lat="48.13058" lon="6.41866">
        <ele>436.39999389648</ele>
        <time>2024-02-11T15:15:33.000Z</time>
      </trkpt>
      <trkpt lat="48.13059" lon="6.41875">
        <ele>436.20001220703</ele>
        <time>2024-02-11T15:15:39.000Z</time>
      </trkpt>
      <trkpt lat="48.13059" lon="6.41888">
        <ele>436.79998779297</ele>
        <time>2024-02-11T15:15:45.000Z</time>
      </trkpt>
      <trkpt lat="48.1306" lon="6.41893">
        <ele>436.60000610352</ele>
        <time>2024-02-11T15:15:50.000Z</time>
      </trkpt>
      <trkpt lat="48.1306" lon="6.41893">
        <ele>436.79998779297</ele>
        <time>2024-02-11T15:15:51.000Z</time>
      </trkpt>
      <trkpt lat="48.13061" lon="6.41899">
        <ele>436.39999389648</ele>
        <time>2024-02-11T15:15:56.000Z</time>
      </trkpt>
      <trkpt lat="48.13061" lon="6.41901">
        <ele>436.39999389648</ele>
        <time>2024-02-11T15:15:57.000Z</time>
      </trkpt>
      <trkpt lat="48.13061" lon="6.41903">
        <ele>436.39999389648</ele>
        <time>2024-02-11T15:15:58.000Z</time>
      </trkpt>
      <trkpt lat="48.13062" lon="6.4191">
        <ele>436.39999389648</ele>
        <time>2024-02-11T15:16:02.000Z</time>
      </trkpt>
      <trkpt lat="48.13061" lon="6.41927">
        <ele>436.39999389648</ele>
        <time>2024-02-11T15:16:09.000Z</time>
      </trkpt>
      <trkpt lat="48.13062" lon="6.41938">
        <ele>436.39999389648</ele>
        <time>2024-02-11T15:16:15.000Z</time>
      </trkpt>
      <trkpt lat="48.13065" lon="6.41954">
        <ele>436.60000610352</ele>
        <time>2024-02-11T15:16:23.000Z</time>
      </trkpt>
      <trkpt lat="48.13065" lon="6.41981">
        <ele>437</ele>
        <time>2024-02-11T15:16:31.000Z</time>
      </trkpt>
      <trkpt lat="48.13065" lon="6.41982">
        <ele>437.20001220703</ele>
        <time>2024-02-11T15:16:32.000Z</time>
      </trkpt>
      <trkpt lat="48.13066" lon="6.41998">
        <ele>437.39999389648</ele>
        <time>2024-02-11T15:16:38.000Z</time>
      </trkpt>
      <trkpt lat="48.13065" lon="6.42006">
        <ele>437.79998779297</ele>
        <time>2024-02-11T15:16:42.000Z</time>
      </trkpt>
      <trkpt lat="48.13064" lon="6.42011">
        <ele>438</ele>
        <time>2024-02-11T15:16:45.000Z</time>
      </trkpt>
      <trkpt lat="48.13063" lon="6.42014">
        <ele>438</ele>
        <time>2024-02-11T15:16:46.000Z</time>
      </trkpt>
      <trkpt lat="48.13066" lon="6.42022">
        <ele>438.39999389648</ele>
        <time>2024-02-11T15:16:54.000Z</time>
      </trkpt>
      <trkpt lat="48.13069" lon="6.42025">
        <ele>438.79998779297</ele>
        <time>2024-02-11T15:16:58.000Z</time>
      </trkpt>
      <trkpt lat="48.1307" lon="6.42025">
        <ele>438.79998779297</ele>
        <time>2024-02-11T15:16:59.000Z</time>
      </trkpt>
      <trkpt lat="48.13072" lon="6.42027">
        <ele>439</ele>
        <time>2024-02-11T15:17:01.000Z</time>
      </trkpt>
      <trkpt lat="48.13073" lon="6.42031">
        <ele>439.39999389648</ele>
        <time>2024-02-11T15:17:04.000Z</time>
      </trkpt>
      <trkpt lat="48.13074" lon="6.42037">
        <ele>439.39999389648</ele>
        <time>2024-02-11T15:17:07.000Z</time>
      </trkpt>
      <trkpt lat="48.13075" lon="6.42046">
        <ele>439.79998779297</ele>
        <time>2024-02-11T15:17:11.000Z</time>
      </trkpt>
      <trkpt lat="48.13077" lon="6.42052">
        <ele>440</ele>
        <time>2024-02-11T15:17:14.000Z</time>
      </trkpt>
      <trkpt lat="48.13077" lon="6.42061">
        <ele>440.20001220703</ele>
        <time>2024-02-11T15:17:17.000Z</time>
      </trkpt>
      <trkpt lat="48.13078" lon="6.42066">
        <ele>440.20001220703</ele>
        <time>2024-02-11T15:17:19.000Z</time>
      </trkpt>
      <trkpt lat="48.13076" lon="6.42076">
        <ele>440.39999389648</ele>
        <time>2024-02-11T15:17:23.000Z</time>
      </trkpt>
      <trkpt lat="48.13076" lon="6.42081">
        <ele>440.39999389648</ele>
        <time>2024-02-11T15:17:25.000Z</time>
      </trkpt>
      <trkpt lat="48.13075" lon="6.42087">
        <ele>440.39999389648</ele>
        <time>2024-02-11T15:17:27.000Z</time>
      </trkpt>
      <trkpt lat="48.13074" lon="6.42089">
        <ele>440.39999389648</ele>
        <time>2024-02-11T15:17:28.000Z</time>
      </trkpt>
      <trkpt lat="48.13074" lon="6.42092">
        <ele>440.39999389648</ele>
        <time>2024-02-11T15:17:29.000Z</time>
      </trkpt>
      <trkpt lat="48.13073" lon="6.42095">
        <ele>440.39999389648</ele>
        <time>2024-02-11T15:17:30.000Z</time>
      </trkpt>
      <trkpt lat="48.13073" lon="6.42098">
        <ele>440.39999389648</ele>
        <time>2024-02-11T15:17:31.000Z</time>
      </trkpt>
      <trkpt lat="48.13075" lon="6.42107">
        <ele>440.20001220703</ele>
        <time>2024-02-11T15:17:36.000Z</time>
      </trkpt>
      <trkpt lat="48.13076" lon="6.42122">
        <ele>440</ele>
        <time>2024-02-11T15:17:43.000Z</time>
      </trkpt>
      <trkpt lat="48.13075" lon="6.42139">
        <ele>440.20001220703</ele>
        <time>2024-02-11T15:17:51.000Z</time>
      </trkpt>
      <trkpt lat="48.13073" lon="6.42154">
        <ele>440.39999389648</ele>
        <time>2024-02-11T15:17:59.000Z</time>
      </trkpt>
      <trkpt lat="48.1307" lon="6.42162">
        <ele>440</ele>
        <time>2024-02-11T15:18:04.000Z</time>
      </trkpt>
      <trkpt lat="48.1307" lon="6.42165">
        <ele>439.79998779297</ele>
        <time>2024-02-11T15:18:06.000Z</time>
      </trkpt>
      <trkpt lat="48.1307" lon="6.42166">
        <ele>439.79998779297</ele>
        <time>2024-02-11T15:18:07.000Z</time>
      </trkpt>
      <trkpt lat="48.1307" lon="6.4217">
        <ele>439.60000610352</ele>
        <time>2024-02-11T15:18:10.000Z</time>
      </trkpt>
      <trkpt lat="48.1307" lon="6.42182">
        <ele>439.39999389648</ele>
        <time>2024-02-11T15:18:17.000Z</time>
      </trkpt>
      <trkpt lat="48.13071" lon="6.42192">
        <ele>439.39999389648</ele>
        <time>2024-02-11T15:18:23.000Z</time>
      </trkpt>
      <trkpt lat="48.13068" lon="6.4221">
        <ele>439.60000610352</ele>
        <time>2024-02-11T15:18:31.000Z</time>
      </trkpt>
      <trkpt lat="48.13065" lon="6.42221">
        <ele>439.60000610352</ele>
        <time>2024-02-11T15:18:36.000Z</time>
      </trkpt>
      <trkpt lat="48.13063" lon="6.42226">
        <ele>439.60000610352</ele>
        <time>2024-02-11T15:18:38.000Z</time>
      </trkpt>
      <trkpt lat="48.13058" lon="6.42244">
        <ele>439.39999389648</ele>
        <time>2024-02-11T15:18:47.000Z</time>
      </trkpt>
      <trkpt lat="48.13058" lon="6.42248">
        <ele>439.39999389648</ele>
        <time>2024-02-11T15:18:49.000Z</time>
      </trkpt>
      <trkpt lat="48.13057" lon="6.42251">
        <ele>439.60000610352</ele>
        <time>2024-02-11T15:18:50.000Z</time>
      </trkpt>
      <trkpt lat="48.13057" lon="6.42259">
        <ele>439.79998779297</ele>
        <time>2024-02-11T15:18:55.000Z</time>
      </trkpt>
      <trkpt lat="48.13057" lon="6.42264">
        <ele>440</ele>
        <time>2024-02-11T15:18:58.000Z</time>
      </trkpt>
      <trkpt lat="48.13057" lon="6.42271">
        <ele>440</ele>
        <time>2024-02-11T15:19:01.000Z</time>
      </trkpt>
      <trkpt lat="48.13059" lon="6.42282">
        <ele>440.39999389648</ele>
        <time>2024-02-11T15:19:07.000Z</time>
      </trkpt>
      <trkpt lat="48.13062" lon="6.42286">
        <ele>440.60000610352</ele>
        <time>2024-02-11T15:19:10.000Z</time>
      </trkpt>
      <trkpt lat="48.13065" lon="6.42292">
        <ele>440.60000610352</ele>
        <time>2024-02-11T15:19:14.000Z</time>
      </trkpt>
      <trkpt lat="48.13066" lon="6.42293">
        <ele>440.79998779297</ele>
        <time>2024-02-11T15:19:15.000Z</time>
      </trkpt>
      <trkpt lat="48.13066" lon="6.42294">
        <ele>441</ele>
        <time>2024-02-11T15:19:16.000Z</time>
      </trkpt>
      <trkpt lat="48.13067" lon="6.42294">
        <ele>441.20001220703</ele>
        <time>2024-02-11T15:19:17.000Z</time>
      </trkpt>
      <trkpt lat="48.13072" lon="6.42292">
        <ele>441.79998779297</ele>
        <time>2024-02-11T15:19:20.000Z</time>
      </trkpt>
      <trkpt lat="48.13073" lon="6.42292">
        <ele>442</ele>
        <time>2024-02-11T15:19:21.000Z</time>
      </trkpt>
      <trkpt lat="48.13076" lon="6.42296">
        <ele>442.60000610352</ele>
        <time>2024-02-11T15:19:26.000Z</time>
      </trkpt>
      <trkpt lat="48.13082" lon="6.42295">
        <ele>442.79998779297</ele>
        <time>2024-02-11T15:19:30.000Z</time>
      </trkpt>
      <trkpt lat="48.13085" lon="6.42293">
        <ele>443</ele>
        <time>2024-02-11T15:19:32.000Z</time>
      </trkpt>
      <trkpt lat="48.13087" lon="6.42296">
        <ele>443.20001220703</ele>
        <time>2024-02-11T15:19:36.000Z</time>
      </trkpt>
      <trkpt lat="48.13088" lon="6.42296">
        <ele>443.39999389648</ele>
        <time>2024-02-11T15:19:37.000Z</time>
      </trkpt>
      <trkpt lat="48.13095" lon="6.42294">
        <ele>443.79998779297</ele>
        <time>2024-02-11T15:19:42.000Z</time>
      </trkpt>
      <trkpt lat="48.13098" lon="6.42294">
        <ele>444</ele>
        <time>2024-02-11T15:19:46.000Z</time>
      </trkpt>
      <trkpt lat="48.131" lon="6.42295">
        <ele>444.20001220703</ele>
        <time>2024-02-11T15:19:48.000Z</time>
      </trkpt>
      <trkpt lat="48.13112" lon="6.42299">
        <ele>444.79998779297</ele>
        <time>2024-02-11T15:19:57.000Z</time>
      </trkpt>
      <trkpt lat="48.13123" lon="6.42306">
        <ele>445.20001220703</ele>
        <time>2024-02-11T15:20:05.000Z</time>
      </trkpt>
      <trkpt lat="48.13129" lon="6.42307">
        <ele>445.60000610352</ele>
        <time>2024-02-11T15:20:10.000Z</time>
      </trkpt>
      <trkpt lat="48.13139" lon="6.42314">
        <ele>446.20001220703</ele>
        <time>2024-02-11T15:20:18.000Z</time>
      </trkpt>
      <trkpt lat="48.13144" lon="6.42319">
        <ele>446.60000610352</ele>
        <time>2024-02-11T15:20:23.000Z</time>
      </trkpt>
      <trkpt lat="48.13153" lon="6.42324">
        <ele>447.20001220703</ele>
        <time>2024-02-11T15:20:30.000Z</time>
      </trkpt>
      <trkpt lat="48.13161" lon="6.42328">
        <ele>448.20001220703</ele>
        <time>2024-02-11T15:20:37.000Z</time>
      </trkpt>
      <trkpt lat="48.13163" lon="6.42329">
        <ele>448.20001220703</ele>
        <time>2024-02-11T15:20:38.000Z</time>
      </trkpt>
      <trkpt lat="48.13164" lon="6.4233">
        <ele>448.39999389648</ele>
        <time>2024-02-11T15:20:39.000Z</time>
      </trkpt>
      <trkpt lat="48.13175" lon="6.42334">
        <ele>449</ele>
        <time>2024-02-11T15:20:47.000Z</time>
      </trkpt>
      <trkpt lat="48.13178" lon="6.42335">
        <ele>449.39999389648</ele>
        <time>2024-02-11T15:20:50.000Z</time>
      </trkpt>
      <trkpt lat="48.13184" lon="6.42338">
        <ele>449.60000610352</ele>
        <time>2024-02-11T15:20:55.000Z</time>
      </trkpt>
      <trkpt lat="48.13194" lon="6.42344">
        <ele>450.20001220703</ele>
        <time>2024-02-11T15:21:03.000Z</time>
      </trkpt>
      <trkpt lat="48.13197" lon="6.42345">
        <ele>450.39999389648</ele>
        <time>2024-02-11T15:21:05.000Z</time>
      </trkpt>
      <trkpt lat="48.132" lon="6.42349">
        <ele>450.79998779297</ele>
        <time>2024-02-11T15:21:09.000Z</time>
      </trkpt>
      <trkpt lat="48.13206" lon="6.42354">
        <ele>451.20001220703</ele>
        <time>2024-02-11T15:21:14.000Z</time>
      </trkpt>
      <trkpt lat="48.1321" lon="6.42357">
        <ele>451.39999389648</ele>
        <time>2024-02-11T15:21:18.000Z</time>
      </trkpt>
      <trkpt lat="48.13211" lon="6.42358">
        <ele>451.60000610352</ele>
        <time>2024-02-11T15:21:19.000Z</time>
      </trkpt>
      <trkpt lat="48.13219" lon="6.42367">
        <ele>452.39999389648</ele>
        <time>2024-02-11T15:21:27.000Z</time>
      </trkpt>
      <trkpt lat="48.13224" lon="6.42371">
        <ele>452.39999389648</ele>
        <time>2024-02-11T15:21:31.000Z</time>
      </trkpt>
      <trkpt lat="48.13237" lon="6.42383">
        <ele>452</ele>
        <time>2024-02-11T15:21:44.000Z</time>
      </trkpt>
      <trkpt lat="48.13245" lon="6.42391">
        <ele>451.60000610352</ele>
        <time>2024-02-11T15:21:51.000Z</time>
      </trkpt>
      <trkpt lat="48.13249" lon="6.42394">
        <ele>451.39999389648</ele>
        <time>2024-02-11T15:21:54.000Z</time>
      </trkpt>
      <trkpt lat="48.13262" lon="6.42401">
        <ele>451</ele>
        <time>2024-02-11T15:22:06.000Z</time>
      </trkpt>
      <trkpt lat="48.13273" lon="6.42405">
        <ele>451</ele>
        <time>2024-02-11T15:22:14.000Z</time>
      </trkpt>
      <trkpt lat="48.13279" lon="6.42409">
        <ele>451.20001220703</ele>
        <time>2024-02-11T15:22:19.000Z</time>
      </trkpt>
      <trkpt lat="48.13289" lon="6.42415">
        <ele>451.79998779297</ele>
        <time>2024-02-11T15:22:27.000Z</time>
      </trkpt>
      <trkpt lat="48.13301" lon="6.4242">
        <ele>452.60000610352</ele>
        <time>2024-02-11T15:22:37.000Z</time>
      </trkpt>
      <trkpt lat="48.13302" lon="6.42421">
        <ele>452.60000610352</ele>
        <time>2024-02-11T15:22:38.000Z</time>
      </trkpt>
      <trkpt lat="48.13303" lon="6.42422">
        <ele>452.79998779297</ele>
        <time>2024-02-11T15:22:39.000Z</time>
      </trkpt>
      <trkpt lat="48.1331" lon="6.42426">
        <ele>453.20001220703</ele>
        <time>2024-02-11T15:22:45.000Z</time>
      </trkpt>
      <trkpt lat="48.13315" lon="6.42429">
        <ele>453.20001220703</ele>
        <time>2024-02-11T15:22:49.000Z</time>
      </trkpt>
      <trkpt lat="48.13318" lon="6.42431">
        <ele>453.20001220703</ele>
        <time>2024-02-11T15:22:52.000Z</time>
      </trkpt>
      <trkpt lat="48.13321" lon="6.42433">
        <ele>453.20001220703</ele>
        <time>2024-02-11T15:22:54.000Z</time>
      </trkpt>
      <trkpt lat="48.13323" lon="6.42435">
        <ele>453.20001220703</ele>
        <time>2024-02-11T15:22:56.000Z</time>
      </trkpt>
      <trkpt lat="48.13327" lon="6.42436">
        <ele>453</ele>
        <time>2024-02-11T15:22:59.000Z</time>
      </trkpt>
      <trkpt lat="48.1333" lon="6.42438">
        <ele>453</ele>
        <time>2024-02-11T15:23:01.000Z</time>
      </trkpt>
      <trkpt lat="48.13331" lon="6.42439">
        <ele>453</ele>
        <time>2024-02-11T15:23:02.000Z</time>
      </trkpt>
      <trkpt lat="48.13335" lon="6.4244">
        <ele>452.79998779297</ele>
        <time>2024-02-11T15:23:07.000Z</time>
      </trkpt>
      <trkpt lat="48.13343" lon="6.4245">
        <ele>453.20001220703</ele>
        <time>2024-02-11T15:23:13.000Z</time>
      </trkpt>
      <trkpt lat="48.13346" lon="6.42454">
        <ele>453.20001220703</ele>
        <time>2024-02-11T15:23:15.000Z</time>
      </trkpt>
      <trkpt lat="48.13349" lon="6.42457">
        <ele>453.39999389648</ele>
        <time>2024-02-11T15:23:18.000Z</time>
      </trkpt>
      <trkpt lat="48.13352" lon="6.4246">
        <ele>453.60000610352</ele>
        <time>2024-02-11T15:23:20.000Z</time>
      </trkpt>
      <trkpt lat="48.13355" lon="6.42463">
        <ele>453.79998779297</ele>
        <time>2024-02-11T15:23:23.000Z</time>
      </trkpt>
      <trkpt lat="48.13356" lon="6.42465">
        <ele>453.79998779297</ele>
        <time>2024-02-11T15:23:24.000Z</time>
      </trkpt>
      <trkpt lat="48.13356" lon="6.42472">
        <ele>454.60000610352</ele>
        <time>2024-02-11T15:23:28.000Z</time>
      </trkpt>
      <trkpt lat="48.13355" lon="6.42473">
        <ele>454.79998779297</ele>
        <time>2024-02-11T15:23:29.000Z</time>
      </trkpt>
      <trkpt lat="48.13354" lon="6.42482">
        <ele>455.60000610352</ele>
        <time>2024-02-11T15:23:33.000Z</time>
      </trkpt>
      <trkpt lat="48.13355" lon="6.42486">
        <ele>455.79998779297</ele>
        <time>2024-02-11T15:23:35.000Z</time>
      </trkpt>
      <trkpt lat="48.13353" lon="6.42493">
        <ele>456.60000610352</ele>
        <time>2024-02-11T15:23:40.000Z</time>
      </trkpt>
      <trkpt lat="48.13354" lon="6.42498">
        <ele>457</ele>
        <time>2024-02-11T15:23:42.000Z</time>
      </trkpt>
      <trkpt lat="48.13354" lon="6.42499">
        <ele>457</ele>
        <time>2024-02-11T15:23:43.000Z</time>
      </trkpt>
      <trkpt lat="48.13354" lon="6.425">
        <ele>457.39999389648</ele>
        <time>2024-02-11T15:23:48.000Z</time>
      </trkpt>
      <trkpt lat="48.13355" lon="6.4251">
        <ele>458</ele>
        <time>2024-02-11T15:23:55.000Z</time>
      </trkpt>
      <trkpt lat="48.13356" lon="6.42522">
        <ele>459</ele>
        <time>2024-02-11T15:24:02.000Z</time>
      </trkpt>
      <trkpt lat="48.13357" lon="6.42524">
        <ele>459.20001220703</ele>
        <time>2024-02-11T15:24:03.000Z</time>
      </trkpt>
      <trkpt lat="48.13357" lon="6.42526">
        <ele>459.60000610352</ele>
        <time>2024-02-11T15:24:05.000Z</time>
      </trkpt>
      <trkpt lat="48.13357" lon="6.4253">
        <ele>460.20001220703</ele>
        <time>2024-02-11T15:24:08.000Z</time>
      </trkpt>
      <trkpt lat="48.13358" lon="6.42532">
        <ele>460.39999389648</ele>
        <time>2024-02-11T15:24:09.000Z</time>
      </trkpt>
      <trkpt lat="48.13361" lon="6.4254">
        <ele>461.39999389648</ele>
        <time>2024-02-11T15:24:14.000Z</time>
      </trkpt>
      <trkpt lat="48.13361" lon="6.42541">
        <ele>461.60000610352</ele>
        <time>2024-02-11T15:24:15.000Z</time>
      </trkpt>
      <trkpt lat="48.13362" lon="6.42546">
        <ele>462.60000610352</ele>
        <time>2024-02-11T15:24:19.000Z</time>
      </trkpt>
      <trkpt lat="48.13365" lon="6.42552">
        <ele>463.39999389648</ele>
        <time>2024-02-11T15:24:22.000Z</time>
      </trkpt>
      <trkpt lat="48.13366" lon="6.42553">
        <ele>463.60000610352</ele>
        <time>2024-02-11T15:24:23.000Z</time>
      </trkpt>
      <trkpt lat="48.13367" lon="6.42554">
        <ele>463.60000610352</ele>
        <time>2024-02-11T15:24:24.000Z</time>
      </trkpt>
      <trkpt lat="48.13368" lon="6.42559">
        <ele>464.39999389648</ele>
        <time>2024-02-11T15:24:28.000Z</time>
      </trkpt>
      <trkpt lat="48.13369" lon="6.4256">
        <ele>464.79998779297</ele>
        <time>2024-02-11T15:24:29.000Z</time>
      </trkpt>
      <trkpt lat="48.13371" lon="6.42562">
        <ele>465.20001220703</ele>
        <time>2024-02-11T15:24:31.000Z</time>
      </trkpt>
      <trkpt lat="48.13374" lon="6.42566">
        <ele>466</ele>
        <time>2024-02-11T15:24:34.000Z</time>
      </trkpt>
      <trkpt lat="48.13379" lon="6.42566">
        <ele>467</ele>
        <time>2024-02-11T15:24:39.000Z</time>
      </trkpt>
      <trkpt lat="48.1338" lon="6.42575">
        <ele>468.20001220703</ele>
        <time>2024-02-11T15:24:45.000Z</time>
      </trkpt>
      <trkpt lat="48.1338" lon="6.42576">
        <ele>468.39999389648</ele>
        <time>2024-02-11T15:24:46.000Z</time>
      </trkpt>
      <trkpt lat="48.13384" lon="6.42583">
        <ele>469.39999389648</ele>
        <time>2024-02-11T15:24:51.000Z</time>
      </trkpt>
      <trkpt lat="48.13388" lon="6.42588">
        <ele>470.39999389648</ele>
        <time>2024-02-11T15:24:56.000Z</time>
      </trkpt>
      <trkpt lat="48.13388" lon="6.42589">
        <ele>470.60000610352</ele>
        <time>2024-02-11T15:24:57.000Z</time>
      </trkpt>
      <trkpt lat="48.1339" lon="6.42592">
        <ele>471.39999389648</ele>
        <time>2024-02-11T15:25:01.000Z</time>
      </trkpt>
      <trkpt lat="48.13395" lon="6.42598">
        <ele>472.39999389648</ele>
        <time>2024-02-11T15:25:05.000Z</time>
      </trkpt>
      <trkpt lat="48.13396" lon="6.42599">
        <ele>472.60000610352</ele>
        <time>2024-02-11T15:25:06.000Z</time>
      </trkpt>
      <trkpt lat="48.13397" lon="6.42606">
        <ele>473.79998779297</ele>
        <time>2024-02-11T15:25:11.000Z</time>
      </trkpt>
      <trkpt lat="48.13397" lon="6.42608">
        <ele>474.20001220703</ele>
        <time>2024-02-11T15:25:13.000Z</time>
      </trkpt>
      <trkpt lat="48.13401" lon="6.42613">
        <ele>474.79998779297</ele>
        <time>2024-02-11T15:25:17.000Z</time>
      </trkpt>
      <trkpt lat="48.13403" lon="6.42615">
        <ele>475.20001220703</ele>
        <time>2024-02-11T15:25:20.000Z</time>
      </trkpt>
      <trkpt lat="48.13405" lon="6.42618">
        <ele>475.79998779297</ele>
        <time>2024-02-11T15:25:23.000Z</time>
      </trkpt>
      <trkpt lat="48.13408" lon="6.42622">
        <ele>476.39999389648</ele>
        <time>2024-02-11T15:25:26.000Z</time>
      </trkpt>
      <trkpt lat="48.1341" lon="6.42626">
        <ele>476.60000610352</ele>
        <time>2024-02-11T15:25:28.000Z</time>
      </trkpt>
      <trkpt lat="48.1341" lon="6.42628">
        <ele>476.79998779297</ele>
        <time>2024-02-11T15:25:29.000Z</time>
      </trkpt>
      <trkpt lat="48.13411" lon="6.4263">
        <ele>477</ele>
        <time>2024-02-11T15:25:30.000Z</time>
      </trkpt>
      <trkpt lat="48.13411" lon="6.42636">
        <ele>477.20001220703</ele>
        <time>2024-02-11T15:25:32.000Z</time>
      </trkpt>
      <trkpt lat="48.13415" lon="6.42645">
        <ele>478</ele>
        <time>2024-02-11T15:25:37.000Z</time>
      </trkpt>
      <trkpt lat="48.13415" lon="6.42647">
        <ele>478</ele>
        <time>2024-02-11T15:25:38.000Z</time>
      </trkpt>
      <trkpt lat="48.13419" lon="6.42658">
        <ele>479</ele>
        <time>2024-02-11T15:25:45.000Z</time>
      </trkpt>
      <trkpt lat="48.13422" lon="6.4266">
        <ele>479.39999389648</ele>
        <time>2024-02-11T15:25:48.000Z</time>
      </trkpt>
      <trkpt lat="48.13426" lon="6.42666">
        <ele>479.79998779297</ele>
        <time>2024-02-11T15:25:52.000Z</time>
      </trkpt>
      <trkpt lat="48.13428" lon="6.42671">
        <ele>480</ele>
        <time>2024-02-11T15:25:54.000Z</time>
      </trkpt>
      <trkpt lat="48.13429" lon="6.42672">
        <ele>480</ele>
        <time>2024-02-11T15:25:55.000Z</time>
      </trkpt>
      <trkpt lat="48.13431" lon="6.42676">
        <ele>480.39999389648</ele>
        <time>2024-02-11T15:25:59.000Z</time>
      </trkpt>
      <trkpt lat="48.13436" lon="6.4268">
        <ele>480.79998779297</ele>
        <time>2024-02-11T15:26:02.000Z</time>
      </trkpt>
      <trkpt lat="48.13438" lon="6.42687">
        <ele>481</ele>
        <time>2024-02-11T15:26:06.000Z</time>
      </trkpt>
      <trkpt lat="48.13439" lon="6.42695">
        <ele>481.39999389648</ele>
        <time>2024-02-11T15:26:10.000Z</time>
      </trkpt>
      <trkpt lat="48.13445" lon="6.42708">
        <ele>482</ele>
        <time>2024-02-11T15:26:20.000Z</time>
      </trkpt>
      <trkpt lat="48.13446" lon="6.4271">
        <ele>482</ele>
        <time>2024-02-11T15:26:21.000Z</time>
      </trkpt>
      <trkpt lat="48.13447" lon="6.42711">
        <ele>482.20001220703</ele>
        <time>2024-02-11T15:26:22.000Z</time>
      </trkpt>
      <trkpt lat="48.13451" lon="6.42724">
        <ele>482.79998779297</ele>
        <time>2024-02-11T15:26:28.000Z</time>
      </trkpt>
      <trkpt lat="48.13457" lon="6.42734">
        <ele>483.20001220703</ele>
        <time>2024-02-11T15:26:35.000Z</time>
      </trkpt>
      <trkpt lat="48.13457" lon="6.42736">
        <ele>483.20001220703</ele>
        <time>2024-02-11T15:26:36.000Z</time>
      </trkpt>
      <trkpt lat="48.13464" lon="6.42747">
        <ele>483.79998779297</ele>
        <time>2024-02-11T15:26:44.000Z</time>
      </trkpt>
      <trkpt lat="48.13467" lon="6.42751">
        <ele>483.79998779297</ele>
        <time>2024-02-11T15:26:48.000Z</time>
      </trkpt>
      <trkpt lat="48.13473" lon="6.42756">
        <ele>484.20001220703</ele>
        <time>2024-02-11T15:26:53.000Z</time>
      </trkpt>
      <trkpt lat="48.13475" lon="6.42756">
        <ele>484.20001220703</ele>
        <time>2024-02-11T15:26:54.000Z</time>
      </trkpt>
      <trkpt lat="48.13481" lon="6.42752">
        <ele>484.39999389648</ele>
        <time>2024-02-11T15:26:59.000Z</time>
      </trkpt>
      <trkpt lat="48.13482" lon="6.42752">
        <ele>484.39999389648</ele>
        <time>2024-02-11T15:27:00.000Z</time>
      </trkpt>
      <trkpt lat="48.13487" lon="6.42752">
        <ele>484.60000610352</ele>
        <time>2024-02-11T15:27:03.000Z</time>
      </trkpt>
      <trkpt lat="48.13491" lon="6.42752">
        <ele>484.79998779297</ele>
        <time>2024-02-11T15:27:07.000Z</time>
      </trkpt>
      <trkpt lat="48.13493" lon="6.42752">
        <ele>484.79998779297</ele>
        <time>2024-02-11T15:27:08.000Z</time>
      </trkpt>
      <trkpt lat="48.13502" lon="6.42753">
        <ele>484.79998779297</ele>
        <time>2024-02-11T15:27:15.000Z</time>
      </trkpt>
      <trkpt lat="48.13503" lon="6.42753">
        <ele>484.79998779297</ele>
        <time>2024-02-11T15:27:16.000Z</time>
      </trkpt>
      <trkpt lat="48.13515" lon="6.42753">
        <ele>484.60000610352</ele>
        <time>2024-02-11T15:27:25.000Z</time>
      </trkpt>
      <trkpt lat="48.1352" lon="6.42754">
        <ele>484.60000610352</ele>
        <time>2024-02-11T15:27:29.000Z</time>
      </trkpt>
      <trkpt lat="48.13531" lon="6.42754">
        <ele>484.60000610352</ele>
        <time>2024-02-11T15:27:37.000Z</time>
      </trkpt>
      <trkpt lat="48.13537" lon="6.42754">
        <ele>484.39999389648</ele>
        <time>2024-02-11T15:27:41.000Z</time>
      </trkpt>
      <trkpt lat="48.13551" lon="6.42757">
        <ele>484</ele>
        <time>2024-02-11T15:27:50.000Z</time>
      </trkpt>
      <trkpt lat="48.13567" lon="6.42767">
        <ele>483.39999389648</ele>
        <time>2024-02-11T15:28:02.000Z</time>
      </trkpt>
      <trkpt lat="48.13573" lon="6.42771">
        <ele>483.20001220703</ele>
        <time>2024-02-11T15:28:06.000Z</time>
      </trkpt>
      <trkpt lat="48.13586" lon="6.42779">
        <ele>482.79998779297</ele>
        <time>2024-02-11T15:28:15.000Z</time>
      </trkpt>
      <trkpt lat="48.13594" lon="6.42785">
        <ele>482.39999389648</ele>
        <time>2024-02-11T15:28:21.000Z</time>
      </trkpt>
      <trkpt lat="48.13601" lon="6.42792">
        <ele>482</ele>
        <time>2024-02-11T15:28:26.000Z</time>
      </trkpt>
      <trkpt lat="48.13603" lon="6.42793">
        <ele>482</ele>
        <time>2024-02-11T15:28:27.000Z</time>
      </trkpt>
      <trkpt lat="48.13613" lon="6.42803">
        <ele>481.60000610352</ele>
        <time>2024-02-11T15:28:34.000Z</time>
      </trkpt>
      <trkpt lat="48.1362" lon="6.42811">
        <ele>481.39999389648</ele>
        <time>2024-02-11T15:28:39.000Z</time>
      </trkpt>
      <trkpt lat="48.13621" lon="6.42812">
        <ele>481.39999389648</ele>
        <time>2024-02-11T15:28:40.000Z</time>
      </trkpt>
      <trkpt lat="48.13626" lon="6.42818">
        <ele>481</ele>
        <time>2024-02-11T15:28:44.000Z</time>
      </trkpt>
      <trkpt lat="48.13631" lon="6.42825">
        <ele>480.60000610352</ele>
        <time>2024-02-11T15:28:49.000Z</time>
      </trkpt>
      <trkpt lat="48.13632" lon="6.42826">
        <ele>480.60000610352</ele>
        <time>2024-02-11T15:28:50.000Z</time>
      </trkpt>
      <trkpt lat="48.13638" lon="6.42833">
        <ele>480.60000610352</ele>
        <time>2024-02-11T15:28:56.000Z</time>
      </trkpt>
      <trkpt lat="48.13641" lon="6.42837">
        <ele>480.60000610352</ele>
        <time>2024-02-11T15:28:59.000Z</time>
      </trkpt>
      <trkpt lat="48.1365" lon="6.42848">
        <ele>480.39999389648</ele>
        <time>2024-02-11T15:29:07.000Z</time>
      </trkpt>
      <trkpt lat="48.13651" lon="6.42849">
        <ele>480.39999389648</ele>
        <time>2024-02-11T15:29:08.000Z</time>
      </trkpt>
      <trkpt lat="48.13658" lon="6.4286">
        <ele>479.79998779297</ele>
        <time>2024-02-11T15:29:14.000Z</time>
      </trkpt>
      <trkpt lat="48.1366" lon="6.42863">
        <ele>479.60000610352</ele>
        <time>2024-02-11T15:29:16.000Z</time>
      </trkpt>
      <trkpt lat="48.13661" lon="6.42865">
        <ele>479.60000610352</ele>
        <time>2024-02-11T15:29:17.000Z</time>
      </trkpt>
      <trkpt lat="48.13671" lon="6.42883">
        <ele>479.39999389648</ele>
        <time>2024-02-11T15:29:28.000Z</time>
      </trkpt>
      <trkpt lat="48.13672" lon="6.42881">
        <ele>479.20001220703</ele>
        <time>2024-02-11T15:29:34.000Z</time>
      </trkpt>
      <trkpt lat="48.13675" lon="6.42878">
        <ele>479</ele>
        <time>2024-02-11T15:29:37.000Z</time>
      </trkpt>
      <trkpt lat="48.13677" lon="6.42878">
        <ele>478.79998779297</ele>
        <time>2024-02-11T15:29:39.000Z</time>
      </trkpt>
      <trkpt lat="48.13679" lon="6.42878">
        <ele>478.79998779297</ele>
        <time>2024-02-11T15:29:40.000Z</time>
      </trkpt>
      <trkpt lat="48.13682" lon="6.42876">
        <ele>478.39999389648</ele>
        <time>2024-02-11T15:29:43.000Z</time>
      </trkpt>
      <trkpt lat="48.13684" lon="6.42874">
        <ele>478</ele>
        <time>2024-02-11T15:29:45.000Z</time>
      </trkpt>
      <trkpt lat="48.13687" lon="6.42873">
        <ele>477.60000610352</ele>
        <time>2024-02-11T15:29:47.000Z</time>
      </trkpt>
      <trkpt lat="48.13696" lon="6.42869">
        <ele>476.60000610352</ele>
        <time>2024-02-11T15:29:55.000Z</time>
      </trkpt>
      <trkpt lat="48.13697" lon="6.42868">
        <ele>476.20001220703</ele>
        <time>2024-02-11T15:29:56.000Z</time>
      </trkpt>
      <trkpt lat="48.13702" lon="6.42867">
        <ele>475.39999389648</ele>
        <time>2024-02-11T15:30:00.000Z</time>
      </trkpt>
      <trkpt lat="48.13705" lon="6.42865">
        <ele>474.79998779297</ele>
        <time>2024-02-11T15:30:02.000Z</time>
      </trkpt>
      <trkpt lat="48.13706" lon="6.42864">
        <ele>474.39999389648</ele>
        <time>2024-02-11T15:30:03.000Z</time>
      </trkpt>
      <trkpt lat="48.13709" lon="6.42863">
        <ele>473.20001220703</ele>
        <time>2024-02-11T15:30:06.000Z</time>
      </trkpt>
      <trkpt lat="48.13713" lon="6.42861">
        <ele>472.39999389648</ele>
        <time>2024-02-11T15:30:09.000Z</time>
      </trkpt>
      <trkpt lat="48.13715" lon="6.4286">
        <ele>472</ele>
        <time>2024-02-11T15:30:10.000Z</time>
      </trkpt>
      <trkpt lat="48.13719" lon="6.42858">
        <ele>471</ele>
        <time>2024-02-11T15:30:13.000Z</time>
      </trkpt>
      <trkpt lat="48.13722" lon="6.42858">
        <ele>469.60000610352</ele>
        <time>2024-02-11T15:30:16.000Z</time>
      </trkpt>
      <trkpt lat="48.13723" lon="6.42859">
        <ele>469</ele>
        <time>2024-02-11T15:30:18.000Z</time>
      </trkpt>
      <trkpt lat="48.13726" lon="6.42858">
        <ele>468.60000610352</ele>
        <time>2024-02-11T15:30:20.000Z</time>
      </trkpt>
      <trkpt lat="48.13734" lon="6.42855">
        <ele>467.39999389648</ele>
        <time>2024-02-11T15:30:24.000Z</time>
      </trkpt>
      <trkpt lat="48.13739" lon="6.42853">
        <ele>466.60000610352</ele>
        <time>2024-02-11T15:30:26.000Z</time>
      </trkpt>
      <trkpt lat="48.1374" lon="6.42853">
        <ele>466.20001220703</ele>
        <time>2024-02-11T15:30:27.000Z</time>
      </trkpt>
      <trkpt lat="48.13747" lon="6.42852">
        <ele>465</ele>
        <time>2024-02-11T15:30:30.000Z</time>
      </trkpt>
      <trkpt lat="48.13752" lon="6.42851">
        <ele>464</ele>
        <time>2024-02-11T15:30:33.000Z</time>
      </trkpt>
      <trkpt lat="48.13753" lon="6.42851">
        <ele>463.79998779297</ele>
        <time>2024-02-11T15:30:34.000Z</time>
      </trkpt>
      <trkpt lat="48.1376" lon="6.42852">
        <ele>463.20001220703</ele>
        <time>2024-02-11T15:30:37.000Z</time>
      </trkpt>
      <trkpt lat="48.13762" lon="6.42852">
        <ele>462.79998779297</ele>
        <time>2024-02-11T15:30:39.000Z</time>
      </trkpt>
      <trkpt lat="48.13766" lon="6.4285">
        <ele>462.20001220703</ele>
        <time>2024-02-11T15:30:42.000Z</time>
      </trkpt>
      <trkpt lat="48.13768" lon="6.42849">
        <ele>461.79998779297</ele>
        <time>2024-02-11T15:30:44.000Z</time>
      </trkpt>
      <trkpt lat="48.13777" lon="6.42846">
        <ele>460.60000610352</ele>
        <time>2024-02-11T15:30:49.000Z</time>
      </trkpt>
      <trkpt lat="48.13786" lon="6.42843">
        <ele>459.60000610352</ele>
        <time>2024-02-11T15:30:55.000Z</time>
      </trkpt>
      <trkpt lat="48.13787" lon="6.42842">
        <ele>459.60000610352</ele>
        <time>2024-02-11T15:30:56.000Z</time>
      </trkpt>
      <trkpt lat="48.13789" lon="6.42842">
        <ele>459.60000610352</ele>
        <time>2024-02-11T15:30:57.000Z</time>
      </trkpt>
      <trkpt lat="48.13794" lon="6.4284">
        <ele>459.20001220703</ele>
        <time>2024-02-11T15:31:02.000Z</time>
      </trkpt>
      <trkpt lat="48.13798" lon="6.42844">
        <ele>459.20001220703</ele>
        <time>2024-02-11T15:31:04.000Z</time>
      </trkpt>
      <trkpt lat="48.13805" lon="6.42844">
        <ele>458.79998779297</ele>
        <time>2024-02-11T15:31:10.000Z</time>
      </trkpt>
      <trkpt lat="48.13808" lon="6.42845">
        <ele>458.60000610352</ele>
        <time>2024-02-11T15:31:12.000Z</time>
      </trkpt>
      <trkpt lat="48.1382" lon="6.42845">
        <ele>457.20001220703</ele>
        <time>2024-02-11T15:31:21.000Z</time>
      </trkpt>
      <trkpt lat="48.13821" lon="6.42844">
        <ele>456.79998779297</ele>
        <time>2024-02-11T15:31:22.000Z</time>
      </trkpt>
      <trkpt lat="48.13824" lon="6.42842">
        <ele>456</ele>
        <time>2024-02-11T15:31:25.000Z</time>
      </trkpt>
      <trkpt lat="48.1383" lon="6.42842">
        <ele>454.79998779297</ele>
        <time>2024-02-11T15:31:29.000Z</time>
      </trkpt>
      <trkpt lat="48.13832" lon="6.42843">
        <ele>454.39999389648</ele>
        <time>2024-02-11T15:31:30.000Z</time>
      </trkpt>
      <trkpt lat="48.13836" lon="6.42844">
        <ele>453.79998779297</ele>
        <time>2024-02-11T15:31:32.000Z</time>
      </trkpt>
      <trkpt lat="48.13837" lon="6.42844">
        <ele>453.39999389648</ele>
        <time>2024-02-11T15:31:33.000Z</time>
      </trkpt>
      <trkpt lat="48.13843" lon="6.42839">
        <ele>452.20001220703</ele>
        <time>2024-02-11T15:31:38.000Z</time>
      </trkpt>
      <trkpt lat="48.13848" lon="6.42836">
        <ele>451</ele>
        <time>2024-02-11T15:31:42.000Z</time>
      </trkpt>
      <trkpt lat="48.13854" lon="6.42837">
        <ele>449.79998779297</ele>
        <time>2024-02-11T15:31:46.000Z</time>
      </trkpt>
      <trkpt lat="48.13855" lon="6.42838">
        <ele>449.60000610352</ele>
        <time>2024-02-11T15:31:47.000Z</time>
      </trkpt>
      <trkpt lat="48.13858" lon="6.42837">
        <ele>448.79998779297</ele>
        <time>2024-02-11T15:31:50.000Z</time>
      </trkpt>
      <trkpt lat="48.13862" lon="6.42836">
        <ele>447.60000610352</ele>
        <time>2024-02-11T15:31:53.000Z</time>
      </trkpt>
      <trkpt lat="48.13866" lon="6.42835">
        <ele>446.79998779297</ele>
        <time>2024-02-11T15:31:56.000Z</time>
      </trkpt>
      <trkpt lat="48.13867" lon="6.42834">
        <ele>446.60000610352</ele>
        <time>2024-02-11T15:31:57.000Z</time>
      </trkpt>
      <trkpt lat="48.13873" lon="6.42832">
        <ele>445.20001220703</ele>
        <time>2024-02-11T15:32:02.000Z</time>
      </trkpt>
      <trkpt lat="48.13875" lon="6.42833">
        <ele>444.79998779297</ele>
        <time>2024-02-11T15:32:04.000Z</time>
      </trkpt>
      <trkpt lat="48.13878" lon="6.42833">
        <ele>444.20001220703</ele>
        <time>2024-02-11T15:32:06.000Z</time>
      </trkpt>
      <trkpt lat="48.13881" lon="6.42834">
        <ele>443</ele>
        <time>2024-02-11T15:32:10.000Z</time>
      </trkpt>
      <trkpt lat="48.13883" lon="6.42833">
        <ele>442.60000610352</ele>
        <time>2024-02-11T15:32:11.000Z</time>
      </trkpt>
      <trkpt lat="48.13885" lon="6.42833">
        <ele>441.60000610352</ele>
        <time>2024-02-11T15:32:14.000Z</time>
      </trkpt>
      <trkpt lat="48.13888" lon="6.42832">
        <ele>440.60000610352</ele>
        <time>2024-02-11T15:32:17.000Z</time>
      </trkpt>
      <trkpt lat="48.13889" lon="6.42832">
        <ele>440.39999389648</ele>
        <time>2024-02-11T15:32:18.000Z</time>
      </trkpt>
      <trkpt lat="48.13892" lon="6.42831">
        <ele>440</ele>
        <time>2024-02-11T15:32:20.000Z</time>
      </trkpt>
      <trkpt lat="48.13894" lon="6.42831">
        <ele>439.20001220703</ele>
        <time>2024-02-11T15:32:23.000Z</time>
      </trkpt>
      <trkpt lat="48.13898" lon="6.42828">
        <ele>438.20001220703</ele>
        <time>2024-02-11T15:32:27.000Z</time>
      </trkpt>
      <trkpt lat="48.139" lon="6.42826">
        <ele>437.79998779297</ele>
        <time>2024-02-11T15:32:29.000Z</time>
      </trkpt>
      <trkpt lat="48.13904" lon="6.42825">
        <ele>436.79998779297</ele>
        <time>2024-02-11T15:32:32.000Z</time>
      </trkpt>
      <trkpt lat="48.13906" lon="6.42825">
        <ele>436.60000610352</ele>
        <time>2024-02-11T15:32:33.000Z</time>
      </trkpt>
      <trkpt lat="48.13907" lon="6.42824">
        <ele>436.20001220703</ele>
        <time>2024-02-11T15:32:34.000Z</time>
      </trkpt>
      <trkpt lat="48.13912" lon="6.42826">
        <ele>435.60000610352</ele>
        <time>2024-02-11T15:32:37.000Z</time>
      </trkpt>
      <trkpt lat="48.13915" lon="6.42826">
        <ele>434.60000610352</ele>
        <time>2024-02-11T15:32:40.000Z</time>
      </trkpt>
      <trkpt lat="48.13916" lon="6.42826">
        <ele>434</ele>
        <time>2024-02-11T15:32:41.000Z</time>
      </trkpt>
      <trkpt lat="48.1392" lon="6.42827">
        <ele>433.39999389648</ele>
        <time>2024-02-11T15:32:45.000Z</time>
      </trkpt>
      <trkpt lat="48.13922" lon="6.42826">
        <ele>433</ele>
        <time>2024-02-11T15:32:47.000Z</time>
      </trkpt>
      <trkpt lat="48.13923" lon="6.42825">
        <ele>432.39999389648</ele>
        <time>2024-02-11T15:32:50.000Z</time>
      </trkpt>
      <trkpt lat="48.13922" lon="6.42826">
        <ele>431.79998779297</ele>
        <time>2024-02-11T15:32:52.000Z</time>
      </trkpt>
      <trkpt lat="48.13923" lon="6.42824">
        <ele>431.20001220703</ele>
        <time>2024-02-11T15:32:54.000Z</time>
      </trkpt>
      <trkpt lat="48.13929" lon="6.42823">
        <ele>430</ele>
        <time>2024-02-11T15:32:59.000Z</time>
      </trkpt>
      <trkpt lat="48.1393" lon="6.42821">
        <ele>429.20001220703</ele>
        <time>2024-02-11T15:33:02.000Z</time>
      </trkpt>
      <trkpt lat="48.13933" lon="6.42821">
        <ele>428.79998779297</ele>
        <time>2024-02-11T15:33:04.000Z</time>
      </trkpt>
      <trkpt lat="48.13936" lon="6.42821">
        <ele>427.60000610352</ele>
        <time>2024-02-11T15:33:07.000Z</time>
      </trkpt>
      <trkpt lat="48.1394" lon="6.4282">
        <ele>426.79998779297</ele>
        <time>2024-02-11T15:33:10.000Z</time>
      </trkpt>
      <trkpt lat="48.13942" lon="6.42821">
        <ele>426.39999389648</ele>
        <time>2024-02-11T15:33:11.000Z</time>
      </trkpt>
      <trkpt lat="48.13946" lon="6.4282">
        <ele>425.20001220703</ele>
        <time>2024-02-11T15:33:14.000Z</time>
      </trkpt>
      <trkpt lat="48.13951" lon="6.42818">
        <ele>424.39999389648</ele>
        <time>2024-02-11T15:33:17.000Z</time>
      </trkpt>
      <trkpt lat="48.13952" lon="6.42817">
        <ele>424</ele>
        <time>2024-02-11T15:33:18.000Z</time>
      </trkpt>
      <trkpt lat="48.13955" lon="6.42817">
        <ele>423.60000610352</ele>
        <time>2024-02-11T15:33:20.000Z</time>
      </trkpt>
      <trkpt lat="48.1396" lon="6.42816">
        <ele>422.79998779297</ele>
        <time>2024-02-11T15:33:23.000Z</time>
      </trkpt>
      <trkpt lat="48.13961" lon="6.42816">
        <ele>422.39999389648</ele>
        <time>2024-02-11T15:33:24.000Z</time>
      </trkpt>
      <trkpt lat="48.13964" lon="6.42815">
        <ele>421.60000610352</ele>
        <time>2024-02-11T15:33:27.000Z</time>
      </trkpt>
      <trkpt lat="48.13966" lon="6.42813">
        <ele>421.20001220703</ele>
        <time>2024-02-11T15:33:29.000Z</time>
      </trkpt>
      <trkpt lat="48.13968" lon="6.42812">
        <ele>420.79998779297</ele>
        <time>2024-02-11T15:33:30.000Z</time>
      </trkpt>
      <trkpt lat="48.1397" lon="6.42812">
        <ele>420.60000610352</ele>
        <time>2024-02-11T15:33:31.000Z</time>
      </trkpt>
      <trkpt lat="48.13974" lon="6.42813">
        <ele>420</ele>
        <time>2024-02-11T15:33:33.000Z</time>
      </trkpt>
      <trkpt lat="48.13975" lon="6.42814">
        <ele>419.39999389648</ele>
        <time>2024-02-11T15:33:34.000Z</time>
      </trkpt>
      <trkpt lat="48.13978" lon="6.42814">
        <ele>418.79998779297</ele>
        <time>2024-02-11T15:33:36.000Z</time>
      </trkpt>
      <trkpt lat="48.13982" lon="6.42813">
        <ele>418.39999389648</ele>
        <time>2024-02-11T15:33:38.000Z</time>
      </trkpt>
      <trkpt lat="48.13989" lon="6.42811">
        <ele>417.20001220703</ele>
        <time>2024-02-11T15:33:42.000Z</time>
      </trkpt>
      <trkpt lat="48.13993" lon="6.4281">
        <ele>416.79998779297</ele>
        <time>2024-02-11T15:33:44.000Z</time>
      </trkpt>
      <trkpt lat="48.13996" lon="6.42806">
        <ele>416.20001220703</ele>
        <time>2024-02-11T15:33:48.000Z</time>
      </trkpt>
      <trkpt lat="48.14" lon="6.42804">
        <ele>415.79998779297</ele>
        <time>2024-02-11T15:33:50.000Z</time>
      </trkpt>
      <trkpt lat="48.14007" lon="6.42803">
        <ele>415</ele>
        <time>2024-02-11T15:33:54.000Z</time>
      </trkpt>
      <trkpt lat="48.1401" lon="6.42805">
        <ele>414.79998779297</ele>
        <time>2024-02-11T15:33:56.000Z</time>
      </trkpt>
      <trkpt lat="48.14016" lon="6.42804">
        <ele>413.79998779297</ele>
        <time>2024-02-11T15:34:02.000Z</time>
      </trkpt>
      <trkpt lat="48.14017" lon="6.42803">
        <ele>413.60000610352</ele>
        <time>2024-02-11T15:34:03.000Z</time>
      </trkpt>
      <trkpt lat="48.1402" lon="6.42799">
        <ele>412.79998779297</ele>
        <time>2024-02-11T15:34:06.000Z</time>
      </trkpt>
      <trkpt lat="48.14022" lon="6.42798">
        <ele>412.79998779297</ele>
        <time>2024-02-11T15:34:07.000Z</time>
      </trkpt>
      <trkpt lat="48.14024" lon="6.42799">
        <ele>412.39999389648</ele>
        <time>2024-02-11T15:34:09.000Z</time>
      </trkpt>
      <trkpt lat="48.1403" lon="6.428">
        <ele>411.60000610352</ele>
        <time>2024-02-11T15:34:12.000Z</time>
      </trkpt>
      <trkpt lat="48.14034" lon="6.42798">
        <ele>411</ele>
        <time>2024-02-11T15:34:17.000Z</time>
      </trkpt>
      <trkpt lat="48.14036" lon="6.42799">
        <ele>410.60000610352</ele>
        <time>2024-02-11T15:34:19.000Z</time>
      </trkpt>
      <trkpt lat="48.14042" lon="6.428">
        <ele>409.60000610352</ele>
        <time>2024-02-11T15:34:24.000Z</time>
      </trkpt>
      <trkpt lat="48.14044" lon="6.42799">
        <ele>409.39999389648</ele>
        <time>2024-02-11T15:34:25.000Z</time>
      </trkpt>
      <trkpt lat="48.14046" lon="6.428">
        <ele>409.20001220703</ele>
        <time>2024-02-11T15:34:26.000Z</time>
      </trkpt>
      <trkpt lat="48.1405" lon="6.428">
        <ele>408.60000610352</ele>
        <time>2024-02-11T15:34:29.000Z</time>
      </trkpt>
      <trkpt lat="48.14051" lon="6.428">
        <ele>408.39999389648</ele>
        <time>2024-02-11T15:34:30.000Z</time>
      </trkpt>
      <trkpt lat="48.14057" lon="6.42792">
        <ele>407.39999389648</ele>
        <time>2024-02-11T15:34:35.000Z</time>
      </trkpt>
      <trkpt lat="48.14059" lon="6.42793">
        <ele>406.60000610352</ele>
        <time>2024-02-11T15:34:37.000Z</time>
      </trkpt>
      <trkpt lat="48.14059" lon="6.42793">
        <ele>406.20001220703</ele>
        <time>2024-02-11T15:34:38.000Z</time>
      </trkpt>
      <trkpt lat="48.14061" lon="6.42792">
        <ele>405</ele>
        <time>2024-02-11T15:34:41.000Z</time>
      </trkpt>
      <trkpt lat="48.14063" lon="6.4279">
        <ele>404.39999389648</ele>
        <time>2024-02-11T15:34:43.000Z</time>
      </trkpt>
      <trkpt lat="48.14063" lon="6.42788">
        <ele>404</ele>
        <time>2024-02-11T15:34:44.000Z</time>
      </trkpt>
      <trkpt lat="48.14065" lon="6.42787">
        <ele>403.60000610352</ele>
        <time>2024-02-11T15:34:46.000Z</time>
      </trkpt>
      <trkpt lat="48.14064" lon="6.42786">
        <ele>403</ele>
        <time>2024-02-11T15:34:48.000Z</time>
      </trkpt>
      <trkpt lat="48.14063" lon="6.42784">
        <ele>403</ele>
        <time>2024-02-11T15:34:50.000Z</time>
      </trkpt>
      <trkpt lat="48.14061" lon="6.42784">
        <ele>403</ele>
        <time>2024-02-11T15:34:52.000Z</time>
      </trkpt>
      <trkpt lat="48.14057" lon="6.42774">
        <ele>403.60000610352</ele>
        <time>2024-02-11T15:34:58.000Z</time>
      </trkpt>
      <trkpt lat="48.14047" lon="6.42762">
        <ele>404.20001220703</ele>
        <time>2024-02-11T15:35:07.000Z</time>
      </trkpt>
      <trkpt lat="48.14046" lon="6.4276">
        <ele>404.39999389648</ele>
        <time>2024-02-11T15:35:08.000Z</time>
      </trkpt>
      <trkpt lat="48.14042" lon="6.42753">
        <ele>404.60000610352</ele>
        <time>2024-02-11T15:35:14.000Z</time>
      </trkpt>
      <trkpt lat="48.1404" lon="6.4275">
        <ele>404.79998779297</ele>
        <time>2024-02-11T15:35:16.000Z</time>
      </trkpt>
      <trkpt lat="48.14038" lon="6.42748">
        <ele>404.79998779297</ele>
        <time>2024-02-11T15:35:18.000Z</time>
      </trkpt>
      <trkpt lat="48.14036" lon="6.42745">
        <ele>404.79998779297</ele>
        <time>2024-02-11T15:35:20.000Z</time>
      </trkpt>
      <trkpt lat="48.14032" lon="6.42742">
        <ele>405.20001220703</ele>
        <time>2024-02-11T15:35:23.000Z</time>
      </trkpt>
      <trkpt lat="48.1403" lon="6.4274">
        <ele>405.20001220703</ele>
        <time>2024-02-11T15:35:24.000Z</time>
      </trkpt>
      <trkpt lat="48.14028" lon="6.42736">
        <ele>405.39999389648</ele>
        <time>2024-02-11T15:35:26.000Z</time>
      </trkpt>
      <trkpt lat="48.14023" lon="6.42726">
        <ele>405.79998779297</ele>
        <time>2024-02-11T15:35:32.000Z</time>
      </trkpt>
      <trkpt lat="48.14019" lon="6.42719">
        <ele>405.79998779297</ele>
        <time>2024-02-11T15:35:36.000Z</time>
      </trkpt>
      <trkpt lat="48.14013" lon="6.42707">
        <ele>406</ele>
        <time>2024-02-11T15:35:44.000Z</time>
      </trkpt>
      <trkpt lat="48.14014" lon="6.42705">
        <ele>406</ele>
        <time>2024-02-11T15:35:45.000Z</time>
      </trkpt>
      <trkpt lat="48.14016" lon="6.42701">
        <ele>405.79998779297</ele>
        <time>2024-02-11T15:35:47.000Z</time>
      </trkpt>
      <trkpt lat="48.14019" lon="6.42697">
        <ele>405.60000610352</ele>
        <time>2024-02-11T15:35:49.000Z</time>
      </trkpt>
      <trkpt lat="48.14023" lon="6.42697">
        <ele>405.20001220703</ele>
        <time>2024-02-11T15:35:51.000Z</time>
      </trkpt>
      <trkpt lat="48.14025" lon="6.42696">
        <ele>405.20001220703</ele>
        <time>2024-02-11T15:35:52.000Z</time>
      </trkpt>
      <trkpt lat="48.14031" lon="6.42699">
        <ele>404.60000610352</ele>
        <time>2024-02-11T15:35:57.000Z</time>
      </trkpt>
      <trkpt lat="48.14034" lon="6.42703">
        <ele>404.20001220703</ele>
        <time>2024-02-11T15:36:01.000Z</time>
      </trkpt>
      <trkpt lat="48.14041" lon="6.42709">
        <ele>403.20001220703</ele>
        <time>2024-02-11T15:36:07.000Z</time>
      </trkpt>
      <trkpt lat="48.14045" lon="6.42712">
        <ele>403.20001220703</ele>
        <time>2024-02-11T15:36:09.000Z</time>
      </trkpt>
      <trkpt lat="48.1405" lon="6.42716">
        <ele>402.79998779297</ele>
        <time>2024-02-11T15:36:12.000Z</time>
      </trkpt>
      <trkpt lat="48.14051" lon="6.42719">
        <ele>402.39999389648</ele>
        <time>2024-02-11T15:36:14.000Z</time>
      </trkpt>
      <trkpt lat="48.14053" lon="6.4272">
        <ele>402.20001220703</ele>
        <time>2024-02-11T15:36:15.000Z</time>
      </trkpt>
      <trkpt lat="48.14054" lon="6.42721">
        <ele>402.20001220703</ele>
        <time>2024-02-11T15:36:16.000Z</time>
      </trkpt>
      <trkpt lat="48.1406" lon="6.42725">
        <ele>400.79998779297</ele>
        <time>2024-02-11T15:36:22.000Z</time>
      </trkpt>
      <trkpt lat="48.14061" lon="6.42725">
        <ele>400.60000610352</ele>
        <time>2024-02-11T15:36:23.000Z</time>
      </trkpt>
      <trkpt lat="48.14063" lon="6.42726">
        <ele>400.39999389648</ele>
        <time>2024-02-11T15:36:25.000Z</time>
      </trkpt>
      <trkpt lat="48.14065" lon="6.42726">
        <ele>399.79998779297</ele>
        <time>2024-02-11T15:36:28.000Z</time>
      </trkpt>
      <trkpt lat="48.1407" lon="6.42727">
        <ele>399.20001220703</ele>
        <time>2024-02-11T15:36:30.000Z</time>
      </trkpt>
      <trkpt lat="48.14073" lon="6.42728">
        <ele>398.60000610352</ele>
        <time>2024-02-11T15:36:33.000Z</time>
      </trkpt>
      <trkpt lat="48.14074" lon="6.42728">
        <ele>398.20001220703</ele>
        <time>2024-02-11T15:36:34.000Z</time>
      </trkpt>
      <trkpt lat="48.14084" lon="6.42728">
        <ele>397.60000610352</ele>
        <time>2024-02-11T15:36:40.000Z</time>
      </trkpt>
      <trkpt lat="48.14087" lon="6.42728">
        <ele>397.39999389648</ele>
        <time>2024-02-11T15:36:41.000Z</time>
      </trkpt>
      <trkpt lat="48.14094" lon="6.42732">
        <ele>396.79998779297</ele>
        <time>2024-02-11T15:36:46.000Z</time>
      </trkpt>
      <trkpt lat="48.14097" lon="6.42732">
        <ele>396.60000610352</ele>
        <time>2024-02-11T15:36:48.000Z</time>
      </trkpt>
      <trkpt lat="48.14103" lon="6.42733">
        <ele>396.39999389648</ele>
        <time>2024-02-11T15:36:52.000Z</time>
      </trkpt>
      <trkpt lat="48.1411" lon="6.42738">
        <ele>396.20001220703</ele>
        <time>2024-02-11T15:36:59.000Z</time>
      </trkpt>
      <trkpt lat="48.14117" lon="6.42744">
        <ele>395.79998779297</ele>
        <time>2024-02-11T15:37:06.000Z</time>
      </trkpt>
      <trkpt lat="48.14118" lon="6.42745">
        <ele>395.79998779297</ele>
        <time>2024-02-11T15:37:07.000Z</time>
      </trkpt>
      <trkpt lat="48.14124" lon="6.42752">
        <ele>395.39999389648</ele>
        <time>2024-02-11T15:37:13.000Z</time>
      </trkpt>
      <trkpt lat="48.14129" lon="6.42758">
        <ele>395.39999389648</ele>
        <time>2024-02-11T15:37:17.000Z</time>
      </trkpt>
      <trkpt lat="48.14134" lon="6.42763">
        <ele>395.20001220703</ele>
        <time>2024-02-11T15:37:22.000Z</time>
      </trkpt>
      <trkpt lat="48.14144" lon="6.42767">
        <ele>395.39999389648</ele>
        <time>2024-02-11T15:37:29.000Z</time>
      </trkpt>
      <trkpt lat="48.14149" lon="6.42769">
        <ele>395.60000610352</ele>
        <time>2024-02-11T15:37:32.000Z</time>
      </trkpt>
      <trkpt lat="48.1416" lon="6.42766">
        <ele>396</ele>
        <time>2024-02-11T15:37:40.000Z</time>
      </trkpt>
      <trkpt lat="48.14161" lon="6.42765">
        <ele>396.20001220703</ele>
        <time>2024-02-11T15:37:41.000Z</time>
      </trkpt>
      <trkpt lat="48.14163" lon="6.42762">
        <ele>396.39999389648</ele>
        <time>2024-02-11T15:37:43.000Z</time>
      </trkpt>
      <trkpt lat="48.14166" lon="6.42761">
        <ele>397</ele>
        <time>2024-02-11T15:37:46.000Z</time>
      </trkpt>
      <trkpt lat="48.14166" lon="6.42761">
        <ele>397</ele>
        <time>2024-02-11T15:37:47.000Z</time>
      </trkpt>
      <trkpt lat="48.14169" lon="6.4276">
        <ele>397.39999389648</ele>
        <time>2024-02-11T15:37:50.000Z</time>
      </trkpt>
      <trkpt lat="48.14169" lon="6.4276">
        <ele>397.60000610352</ele>
        <time>2024-02-11T15:37:51.000Z</time>
      </trkpt>
      <trkpt lat="48.14172" lon="6.42762">
        <ele>397.79998779297</ele>
        <time>2024-02-11T15:37:55.000Z</time>
      </trkpt>
      <trkpt lat="48.14172" lon="6.42763">
        <ele>398</ele>
        <time>2024-02-11T15:38:00.000Z</time>
      </trkpt>
      <trkpt lat="48.14171" lon="6.42763">
        <ele>397.79998779297</ele>
        <time>2024-02-11T15:38:05.000Z</time>
      </trkpt>
      <trkpt lat="48.14171" lon="6.42763">
        <ele>397.79998779297</ele>
        <time>2024-02-11T15:38:09.000Z</time>
      </trkpt>
      <trkpt lat="48.14171" lon="6.42763">
        <ele>397.79998779297</ele>
        <time>2024-02-11T15:38:12.000Z</time>
      </trkpt>
      <trkpt lat="48.14177" lon="6.4277">
        <ele>397.39999389648</ele>
        <time>2024-02-11T15:38:19.000Z</time>
      </trkpt>
      <trkpt lat="48.1418" lon="6.42774">
        <ele>397.39999389648</ele>
        <time>2024-02-11T15:38:21.000Z</time>
      </trkpt>
      <trkpt lat="48.14184" lon="6.4278">
        <ele>397.20001220703</ele>
        <time>2024-02-11T15:38:24.000Z</time>
      </trkpt>
      <trkpt lat="48.14186" lon="6.42782">
        <ele>397.20001220703</ele>
        <time>2024-02-11T15:38:25.000Z</time>
      </trkpt>
      <trkpt lat="48.14191" lon="6.42787">
        <ele>396.79998779297</ele>
        <time>2024-02-11T15:38:29.000Z</time>
      </trkpt>
      <trkpt lat="48.14192" lon="6.42789">
        <ele>396.79998779297</ele>
        <time>2024-02-11T15:38:30.000Z</time>
      </trkpt>
      <trkpt lat="48.14195" lon="6.42795">
        <ele>396.60000610352</ele>
        <time>2024-02-11T15:38:34.000Z</time>
      </trkpt>
      <trkpt lat="48.14198" lon="6.42798">
        <ele>396.20001220703</ele>
        <time>2024-02-11T15:38:37.000Z</time>
      </trkpt>
      <trkpt lat="48.142" lon="6.42802">
        <ele>395.60000610352</ele>
        <time>2024-02-11T15:38:44.000Z</time>
      </trkpt>
      <trkpt lat="48.14205" lon="6.42806">
        <ele>395.60000610352</ele>
        <time>2024-02-11T15:38:51.000Z</time>
      </trkpt>
      <trkpt lat="48.1421" lon="6.42813">
        <ele>395</ele>
        <time>2024-02-11T15:38:56.000Z</time>
      </trkpt>
      <trkpt lat="48.14211" lon="6.42818">
        <ele>394.79998779297</ele>
        <time>2024-02-11T15:38:59.000Z</time>
      </trkpt>
      <trkpt lat="48.14215" lon="6.42821">
        <ele>394.60000610352</ele>
        <time>2024-02-11T15:39:05.000Z</time>
      </trkpt>
      <trkpt lat="48.14218" lon="6.42821">
        <ele>394.60000610352</ele>
        <time>2024-02-11T15:39:07.000Z</time>
      </trkpt>
      <trkpt lat="48.14226" lon="6.42829">
        <ele>394.60000610352</ele>
        <time>2024-02-11T15:39:14.000Z</time>
      </trkpt>
      <trkpt lat="48.1423" lon="6.42831">
        <ele>394.60000610352</ele>
        <time>2024-02-11T15:39:16.000Z</time>
      </trkpt>
      <trkpt lat="48.14235" lon="6.42831">
        <ele>394.60000610352</ele>
        <time>2024-02-11T15:39:20.000Z</time>
      </trkpt>
      <trkpt lat="48.14243" lon="6.42838">
        <ele>394.60000610352</ele>
        <time>2024-02-11T15:39:25.000Z</time>
      </trkpt>
      <trkpt lat="48.14247" lon="6.42841">
        <ele>394.60000610352</ele>
        <time>2024-02-11T15:39:27.000Z</time>
      </trkpt>
      <trkpt lat="48.14256" lon="6.42854">
        <ele>394.79998779297</ele>
        <time>2024-02-11T15:39:34.000Z</time>
      </trkpt>
      <trkpt lat="48.14256" lon="6.42857">
        <ele>394.79998779297</ele>
        <time>2024-02-11T15:39:35.000Z</time>
      </trkpt>
      <trkpt lat="48.1426" lon="6.42864">
        <ele>395</ele>
        <time>2024-02-11T15:39:38.000Z</time>
      </trkpt>
      <trkpt lat="48.14263" lon="6.42874">
        <ele>394.79998779297</ele>
        <time>2024-02-11T15:39:43.000Z</time>
      </trkpt>
      <trkpt lat="48.14264" lon="6.42876">
        <ele>394.79998779297</ele>
        <time>2024-02-11T15:39:44.000Z</time>
      </trkpt>
      <trkpt lat="48.14266" lon="6.42889">
        <ele>394.60000610352</ele>
        <time>2024-02-11T15:39:50.000Z</time>
      </trkpt>
      <trkpt lat="48.14273" lon="6.42905">
        <ele>394.60000610352</ele>
        <time>2024-02-11T15:39:58.000Z</time>
      </trkpt>
      <trkpt lat="48.14279" lon="6.42913">
        <ele>394.79998779297</ele>
        <time>2024-02-11T15:40:05.000Z</time>
      </trkpt>
      <trkpt lat="48.14282" lon="6.42919">
        <ele>395</ele>
        <time>2024-02-11T15:40:08.000Z</time>
      </trkpt>
      <trkpt lat="48.14283" lon="6.4292">
        <ele>395.20001220703</ele>
        <time>2024-02-11T15:40:09.000Z</time>
      </trkpt>
      <trkpt lat="48.14288" lon="6.42937">
        <ele>395.39999389648</ele>
        <time>2024-02-11T15:40:19.000Z</time>
      </trkpt>
      <trkpt lat="48.14288" lon="6.42939">
        <ele>395.39999389648</ele>
        <time>2024-02-11T15:40:20.000Z</time>
      </trkpt>
      <trkpt lat="48.1429" lon="6.42948">
        <ele>395.20001220703</ele>
        <time>2024-02-11T15:40:25.000Z</time>
      </trkpt>
      <trkpt lat="48.14293" lon="6.42953">
        <ele>395.20001220703</ele>
        <time>2024-02-11T15:40:29.000Z</time>
      </trkpt>
      <trkpt lat="48.14296" lon="6.42957">
        <ele>395.20001220703</ele>
        <time>2024-02-11T15:40:32.000Z</time>
      </trkpt>
      <trkpt lat="48.14301" lon="6.42969">
        <ele>395.20001220703</ele>
        <time>2024-02-11T15:40:39.000Z</time>
      </trkpt>
      <trkpt lat="48.14303" lon="6.42973">
        <ele>395.20001220703</ele>
        <time>2024-02-11T15:40:41.000Z</time>
      </trkpt>
      <trkpt lat="48.1431" lon="6.42984">
        <ele>395</ele>
        <time>2024-02-11T15:40:48.000Z</time>
      </trkpt>
      <trkpt lat="48.14312" lon="6.42989">
        <ele>394.79998779297</ele>
        <time>2024-02-11T15:40:51.000Z</time>
      </trkpt>
      <trkpt lat="48.14319" lon="6.42998">
        <ele>394.60000610352</ele>
        <time>2024-02-11T15:40:58.000Z</time>
      </trkpt>
      <trkpt lat="48.1432" lon="6.42999">
        <ele>394.60000610352</ele>
        <time>2024-02-11T15:40:59.000Z</time>
      </trkpt>
      <trkpt lat="48.14321" lon="6.43">
        <ele>394.60000610352</ele>
        <time>2024-02-11T15:41:00.000Z</time>
      </trkpt>
      <trkpt lat="48.14328" lon="6.43011">
        <ele>394.20001220703</ele>
        <time>2024-02-11T15:41:07.000Z</time>
      </trkpt>
      <trkpt lat="48.14332" lon="6.43016">
        <ele>394</ele>
        <time>2024-02-11T15:41:11.000Z</time>
      </trkpt>
      <trkpt lat="48.14333" lon="6.43019">
        <ele>394</ele>
        <time>2024-02-11T15:41:13.000Z</time>
      </trkpt>
      <trkpt lat="48.14342" lon="6.4303">
        <ele>394</ele>
        <time>2024-02-11T15:41:22.000Z</time>
      </trkpt>
      <trkpt lat="48.14348" lon="6.43036">
        <ele>393.79998779297</ele>
        <time>2024-02-11T15:41:27.000Z</time>
      </trkpt>
      <trkpt lat="48.14351" lon="6.43041">
        <ele>393.79998779297</ele>
        <time>2024-02-11T15:41:30.000Z</time>
      </trkpt>
      <trkpt lat="48.14352" lon="6.43043">
        <ele>393.79998779297</ele>
        <time>2024-02-11T15:41:32.000Z</time>
      </trkpt>
      <trkpt lat="48.14353" lon="6.43044">
        <ele>393.79998779297</ele>
        <time>2024-02-11T15:41:33.000Z</time>
      </trkpt>
      <trkpt lat="48.14361" lon="6.43052">
        <ele>393.60000610352</ele>
        <time>2024-02-11T15:41:40.000Z</time>
      </trkpt>
      <trkpt lat="48.14368" lon="6.43057">
        <ele>393.39999389648</ele>
        <time>2024-02-11T15:41:45.000Z</time>
      </trkpt>
      <trkpt lat="48.14374" lon="6.4306">
        <ele>393.39999389648</ele>
        <time>2024-02-11T15:41:49.000Z</time>
      </trkpt>
      <trkpt lat="48.14384" lon="6.43065">
        <ele>393.20001220703</ele>
        <time>2024-02-11T15:41:57.000Z</time>
      </trkpt>
      <trkpt lat="48.14386" lon="6.43065">
        <ele>393</ele>
        <time>2024-02-11T15:41:58.000Z</time>
      </trkpt>
      <trkpt lat="48.14396" lon="6.43062">
        <ele>392.60000610352</ele>
        <time>2024-02-11T15:42:07.000Z</time>
      </trkpt>
      <trkpt lat="48.144" lon="6.43059">
        <ele>392.39999389648</ele>
        <time>2024-02-11T15:42:10.000Z</time>
      </trkpt>
      <trkpt lat="48.14401" lon="6.43058">
        <ele>392</ele>
        <time>2024-02-11T15:42:13.000Z</time>
      </trkpt>
      <trkpt lat="48.14408" lon="6.43057">
        <ele>391.79998779297</ele>
        <time>2024-02-11T15:42:19.000Z</time>
      </trkpt>
      <trkpt lat="48.14417" lon="6.43055">
        <ele>391.20001220703</ele>
        <time>2024-02-11T15:42:25.000Z</time>
      </trkpt>
      <trkpt lat="48.14421" lon="6.43054">
        <ele>390.79998779297</ele>
        <time>2024-02-11T15:42:28.000Z</time>
      </trkpt>
      <trkpt lat="48.14427" lon="6.43055">
        <ele>390.39999389648</ele>
        <time>2024-02-11T15:42:32.000Z</time>
      </trkpt>
      <trkpt lat="48.14428" lon="6.43055">
        <ele>390.20001220703</ele>
        <time>2024-02-11T15:42:33.000Z</time>
      </trkpt>
      <trkpt lat="48.14433" lon="6.43058">
        <ele>389.60000610352</ele>
        <time>2024-02-11T15:42:37.000Z</time>
      </trkpt>
      <trkpt lat="48.14438" lon="6.43058">
        <ele>389.20001220703</ele>
        <time>2024-02-11T15:42:40.000Z</time>
      </trkpt>
      <trkpt lat="48.14443" lon="6.43062">
        <ele>388.79998779297</ele>
        <time>2024-02-11T15:42:44.000Z</time>
      </trkpt>
      <trkpt lat="48.14453" lon="6.43064">
        <ele>388.20001220703</ele>
        <time>2024-02-11T15:42:51.000Z</time>
      </trkpt>
      <trkpt lat="48.14457" lon="6.43064">
        <ele>388.20001220703</ele>
        <time>2024-02-11T15:42:53.000Z</time>
      </trkpt>
      <trkpt lat="48.14459" lon="6.43065">
        <ele>388.20001220703</ele>
        <time>2024-02-11T15:42:54.000Z</time>
      </trkpt>
      <trkpt lat="48.14464" lon="6.43069">
        <ele>388</ele>
        <time>2024-02-11T15:42:57.000Z</time>
      </trkpt>
      <trkpt lat="48.14474" lon="6.43072">
        <ele>387.39999389648</ele>
        <time>2024-02-11T15:43:03.000Z</time>
      </trkpt>
      <trkpt lat="48.14478" lon="6.43075">
        <ele>387.20001220703</ele>
        <time>2024-02-11T15:43:05.000Z</time>
      </trkpt>
      <trkpt lat="48.1448" lon="6.43075">
        <ele>387.20001220703</ele>
        <time>2024-02-11T15:43:06.000Z</time>
      </trkpt>
      <trkpt lat="48.14485" lon="6.43074">
        <ele>387</ele>
        <time>2024-02-11T15:43:10.000Z</time>
      </trkpt>
      <trkpt lat="48.14496" lon="6.43069">
        <ele>386.60000610352</ele>
        <time>2024-02-11T15:43:18.000Z</time>
      </trkpt>
      <trkpt lat="48.14501" lon="6.43063">
        <ele>386.60000610352</ele>
        <time>2024-02-11T15:43:23.000Z</time>
      </trkpt>
      <trkpt lat="48.14503" lon="6.43061">
        <ele>386.79998779297</ele>
        <time>2024-02-11T15:43:25.000Z</time>
      </trkpt>
      <trkpt lat="48.14509" lon="6.43057">
        <ele>386.79998779297</ele>
        <time>2024-02-11T15:43:30.000Z</time>
      </trkpt>
      <trkpt lat="48.14512" lon="6.43055">
        <ele>387</ele>
        <time>2024-02-11T15:43:32.000Z</time>
      </trkpt>
      <trkpt lat="48.14515" lon="6.43049">
        <ele>387.20001220703</ele>
        <time>2024-02-11T15:43:39.000Z</time>
      </trkpt>
      <trkpt lat="48.14514" lon="6.43049">
        <ele>387.60000610352</ele>
        <time>2024-02-11T15:43:48.000Z</time>
      </trkpt>
      <trkpt lat="48.14516" lon="6.43048">
        <ele>388.20001220703</ele>
        <time>2024-02-11T15:43:50.000Z</time>
      </trkpt>
      <trkpt lat="48.14513" lon="6.43045">
        <ele>388.79998779297</ele>
        <time>2024-02-11T15:43:54.000Z</time>
      </trkpt>
      <trkpt lat="48.14513" lon="6.43046">
        <ele>389.39999389648</ele>
        <time>2024-02-11T15:43:57.000Z</time>
      </trkpt>
      <trkpt lat="48.14514" lon="6.43047">
        <ele>389.60000610352</ele>
        <time>2024-02-11T15:44:00.000Z</time>
      </trkpt>
      <trkpt lat="48.14511" lon="6.4305">
        <ele>389.39999389648</ele>
        <time>2024-02-11T15:44:05.000Z</time>
      </trkpt>
      <trkpt lat="48.1451" lon="6.43051">
        <ele>389.39999389648</ele>
        <time>2024-02-11T15:44:11.000Z</time>
      </trkpt>
      <trkpt lat="48.14511" lon="6.43052">
        <ele>389.60000610352</ele>
        <time>2024-02-11T15:44:15.000Z</time>
      </trkpt>
      <trkpt lat="48.14509" lon="6.43051">
        <ele>389.79998779297</ele>
        <time>2024-02-11T15:44:18.000Z</time>
      </trkpt>
      <trkpt lat="48.14507" lon="6.43048">
        <ele>390.20001220703</ele>
        <time>2024-02-11T15:44:21.000Z</time>
      </trkpt>
      <trkpt lat="48.14505" lon="6.43045">
        <ele>390.39999389648</ele>
        <time>2024-02-11T15:44:24.000Z</time>
      </trkpt>
      <trkpt lat="48.14502" lon="6.43034">
        <ele>391.39999389648</ele>
        <time>2024-02-11T15:44:29.000Z</time>
      </trkpt>
      <trkpt lat="48.14502" lon="6.43031">
        <ele>391.60000610352</ele>
        <time>2024-02-11T15:44:30.000Z</time>
      </trkpt>
      <trkpt lat="48.14501" lon="6.43027">
        <ele>392</ele>
        <time>2024-02-11T15:44:32.000Z</time>
      </trkpt>
      <trkpt lat="48.14503" lon="6.43022">
        <ele>392.20001220703</ele>
        <time>2024-02-11T15:44:35.000Z</time>
      </trkpt>
      <trkpt lat="48.14502" lon="6.43019">
        <ele>392.60000610352</ele>
        <time>2024-02-11T15:44:40.000Z</time>
      </trkpt>
      <trkpt lat="48.14501" lon="6.43014">
        <ele>392.79998779297</ele>
        <time>2024-02-11T15:44:42.000Z</time>
      </trkpt>
      <trkpt lat="48.14496" lon="6.43014">
        <ele>393.79998779297</ele>
        <time>2024-02-11T15:44:48.000Z</time>
      </trkpt>
      <trkpt lat="48.14494" lon="6.43013">
        <ele>394</ele>
        <time>2024-02-11T15:44:49.000Z</time>
      </trkpt>
      <trkpt lat="48.14491" lon="6.43012">
        <ele>394.79998779297</ele>
        <time>2024-02-11T15:44:53.000Z</time>
      </trkpt>
      <trkpt lat="48.14489" lon="6.43011">
        <ele>395.39999389648</ele>
        <time>2024-02-11T15:44:56.000Z</time>
      </trkpt>
      <trkpt lat="48.14488" lon="6.43009">
        <ele>395.79998779297</ele>
        <time>2024-02-11T15:44:59.000Z</time>
      </trkpt>
      <trkpt lat="48.14487" lon="6.43008">
        <ele>396.20001220703</ele>
        <time>2024-02-11T15:45:03.000Z</time>
      </trkpt>
      <trkpt lat="48.14482" lon="6.43007">
        <ele>397</ele>
        <time>2024-02-11T15:45:10.000Z</time>
      </trkpt>
      <trkpt lat="48.14481" lon="6.43008">
        <ele>397.20001220703</ele>
        <time>2024-02-11T15:45:11.000Z</time>
      </trkpt>
      <trkpt lat="48.1448" lon="6.43006">
        <ele>398.20001220703</ele>
        <time>2024-02-11T15:45:16.000Z</time>
      </trkpt>
      <trkpt lat="48.1448" lon="6.43006">
        <ele>398.39999389648</ele>
        <time>2024-02-11T15:45:19.000Z</time>
      </trkpt>
      <trkpt lat="48.14481" lon="6.43003">
        <ele>398.60000610352</ele>
        <time>2024-02-11T15:45:27.000Z</time>
      </trkpt>
      <trkpt lat="48.14481" lon="6.43003">
        <ele>399.20001220703</ele>
        <time>2024-02-11T15:45:37.000Z</time>
      </trkpt>
      <trkpt lat="48.14482" lon="6.42999">
        <ele>399.79998779297</ele>
        <time>2024-02-11T15:45:39.000Z</time>
      </trkpt>
      <trkpt lat="48.14483" lon="6.42994">
        <ele>400.39999389648</ele>
        <time>2024-02-11T15:45:42.000Z</time>
      </trkpt>
      <trkpt lat="48.14482" lon="6.42992">
        <ele>400.60000610352</ele>
        <time>2024-02-11T15:45:44.000Z</time>
      </trkpt>
      <trkpt lat="48.14483" lon="6.42987">
        <ele>401.39999389648</ele>
        <time>2024-02-11T15:45:48.000Z</time>
      </trkpt>
      <trkpt lat="48.14483" lon="6.42984">
        <ele>402</ele>
        <time>2024-02-11T15:45:51.000Z</time>
      </trkpt>
      <trkpt lat="48.14481" lon="6.42979">
        <ele>402.60000610352</ele>
        <time>2024-02-11T15:45:56.000Z</time>
      </trkpt>
      <trkpt lat="48.14482" lon="6.42977">
        <ele>403</ele>
        <time>2024-02-11T15:45:58.000Z</time>
      </trkpt>
      <trkpt lat="48.1449" lon="6.42967">
        <ele>403.39999389648</ele>
        <time>2024-02-11T15:46:05.000Z</time>
      </trkpt>
      <trkpt lat="48.14493" lon="6.42962">
        <ele>403.39999389648</ele>
        <time>2024-02-11T15:46:11.000Z</time>
      </trkpt>
      <trkpt lat="48.14495" lon="6.4296">
        <ele>403.39999389648</ele>
        <time>2024-02-11T15:46:13.000Z</time>
      </trkpt>
      <trkpt lat="48.14499" lon="6.42952">
        <ele>403.60000610352</ele>
        <time>2024-02-11T15:46:19.000Z</time>
      </trkpt>
      <trkpt lat="48.14499" lon="6.42952">
        <ele>403.60000610352</ele>
        <time>2024-02-11T15:46:20.000Z</time>
      </trkpt>
      <trkpt lat="48.14496" lon="6.42953">
        <ele>403.60000610352</ele>
        <time>2024-02-11T15:46:26.000Z</time>
      </trkpt>
      <trkpt lat="48.14494" lon="6.42953">
        <ele>403.60000610352</ele>
        <time>2024-02-11T15:46:32.000Z</time>
      </trkpt>
      <trkpt lat="48.14494" lon="6.42952">
        <ele>403.60000610352</ele>
        <time>2024-02-11T15:46:33.000Z</time>
      </trkpt>
      <trkpt lat="48.14496" lon="6.42952">
        <ele>403.60000610352</ele>
        <time>2024-02-11T15:46:38.000Z</time>
      </trkpt>
      <trkpt lat="48.14496" lon="6.42952">
        <ele>403.60000610352</ele>
        <time>2024-02-11T15:46:43.000Z</time>
      </trkpt>
      <trkpt lat="48.14496" lon="6.42952">
        <ele>403.60000610352</ele>
        <time>2024-02-11T15:46:45.000Z</time>
      </trkpt>
      <trkpt lat="48.14496" lon="6.42952">
        <ele>403.60000610352</ele>
        <time>2024-02-11T15:46:47.000Z</time>
      </trkpt>
      <trkpt lat="48.14495" lon="6.42952">
        <ele>403.60000610352</ele>
        <time>2024-02-11T15:46:50.000Z</time>
      </trkpt>
      <trkpt lat="48.14496" lon="6.42946">
        <ele>403.79998779297</ele>
        <time>2024-02-11T15:46:55.000Z</time>
      </trkpt>
      <trkpt lat="48.14501" lon="6.42941">
        <ele>404.20001220703</ele>
        <time>2024-02-11T15:47:00.000Z</time>
      </trkpt>
      <trkpt lat="48.14502" lon="6.4294">
        <ele>404.39999389648</ele>
        <time>2024-02-11T15:47:01.000Z</time>
      </trkpt>
      <trkpt lat="48.14501" lon="6.4294">
        <ele>404.39999389648</ele>
        <time>2024-02-11T15:47:02.000Z</time>
      </trkpt>
      <trkpt lat="48.14502" lon="6.42938">
        <ele>404.39999389648</ele>
        <time>2024-02-11T15:47:05.000Z</time>
      </trkpt>
      <trkpt lat="48.14503" lon="6.42937">
        <ele>404.60000610352</ele>
        <time>2024-02-11T15:47:11.000Z</time>
      </trkpt>
      <trkpt lat="48.14504" lon="6.42935">
        <ele>404.60000610352</ele>
        <time>2024-02-11T15:47:12.000Z</time>
      </trkpt>
      <trkpt lat="48.14504" lon="6.42932">
        <ele>405.20001220703</ele>
        <time>2024-02-11T15:47:17.000Z</time>
      </trkpt>
      <trkpt lat="48.14503" lon="6.4293">
        <ele>405.60000610352</ele>
        <time>2024-02-11T15:47:21.000Z</time>
      </trkpt>
      <trkpt lat="48.14504" lon="6.42929">
        <ele>405.60000610352</ele>
        <time>2024-02-11T15:47:22.000Z</time>
      </trkpt>
      <trkpt lat="48.14504" lon="6.42927">
        <ele>405.60000610352</ele>
        <time>2024-02-11T15:47:24.000Z</time>
      </trkpt>
      <trkpt lat="48.14503" lon="6.42924">
        <ele>406.39999389648</ele>
        <time>2024-02-11T15:47:28.000Z</time>
      </trkpt>
      <trkpt lat="48.14502" lon="6.42925">
        <ele>406.79998779297</ele>
        <time>2024-02-11T15:47:30.000Z</time>
      </trkpt>
      <trkpt lat="48.14502" lon="6.42929">
        <ele>407.79998779297</ele>
        <time>2024-02-11T15:47:34.000Z</time>
      </trkpt>
      <trkpt lat="48.14503" lon="6.42937">
        <ele>408.39999389648</ele>
        <time>2024-02-11T15:47:39.000Z</time>
      </trkpt>
      <trkpt lat="48.14503" lon="6.42937">
        <ele>409</ele>
        <time>2024-02-11T15:47:42.000Z</time>
      </trkpt>
      <trkpt lat="48.14503" lon="6.42937">
        <ele>409.20001220703</ele>
        <time>2024-02-11T15:47:44.000Z</time>
      </trkpt>
      <trkpt lat="48.14501" lon="6.42936">
        <ele>409.20001220703</ele>
        <time>2024-02-11T15:47:48.000Z</time>
      </trkpt>
      <trkpt lat="48.14499" lon="6.42935">
        <ele>409.20001220703</ele>
        <time>2024-02-11T15:47:50.000Z</time>
      </trkpt>
      <trkpt lat="48.14495" lon="6.42937">
        <ele>409.20001220703</ele>
        <time>2024-02-11T15:47:51.000Z</time>
      </trkpt>
      <trkpt lat="48.14489" lon="6.42937">
        <ele>410</ele>
        <time>2024-02-11T15:47:58.000Z</time>
      </trkpt>
      <trkpt lat="48.14487" lon="6.42937">
        <ele>410.20001220703</ele>
        <time>2024-02-11T15:48:00.000Z</time>
      </trkpt>
      <trkpt lat="48.14483" lon="6.42922">
        <ele>410.60000610352</ele>
        <time>2024-02-11T15:48:08.000Z</time>
      </trkpt>
      <trkpt lat="48.14481" lon="6.42918">
        <ele>411</ele>
        <time>2024-02-11T15:48:12.000Z</time>
      </trkpt>
      <trkpt lat="48.1448" lon="6.42917">
        <ele>411.60000610352</ele>
        <time>2024-02-11T15:48:16.000Z</time>
      </trkpt>
      <trkpt lat="48.14479" lon="6.42916">
        <ele>412</ele>
        <time>2024-02-11T15:48:20.000Z</time>
      </trkpt>
      <trkpt lat="48.14479" lon="6.42916">
        <ele>412.20001220703</ele>
        <time>2024-02-11T15:48:21.000Z</time>
      </trkpt>
      <trkpt lat="48.14479" lon="6.42916">
        <ele>412.39999389648</ele>
        <time>2024-02-11T15:48:22.000Z</time>
      </trkpt>
      <trkpt lat="48.14478" lon="6.42922">
        <ele>413.20001220703</ele>
        <time>2024-02-11T15:48:28.000Z</time>
      </trkpt>
      <trkpt lat="48.14477" lon="6.42924">
        <ele>413.39999389648</ele>
        <time>2024-02-11T15:48:29.000Z</time>
      </trkpt>
      <trkpt lat="48.14475" lon="6.42929">
        <ele>414</ele>
        <time>2024-02-11T15:48:34.000Z</time>
      </trkpt>
      <trkpt lat="48.14475" lon="6.42929">
        <ele>414</ele>
        <time>2024-02-11T15:48:35.000Z</time>
      </trkpt>
      <trkpt lat="48.14475" lon="6.42931">
        <ele>414.20001220703</ele>
        <time>2024-02-11T15:48:40.000Z</time>
      </trkpt>
      <trkpt lat="48.14473" lon="6.42934">
        <ele>414.20001220703</ele>
        <time>2024-02-11T15:48:44.000Z</time>
      </trkpt>
      <trkpt lat="48.14475" lon="6.42934">
        <ele>414.39999389648</ele>
        <time>2024-02-11T15:48:48.000Z</time>
      </trkpt>
      <trkpt lat="48.14479" lon="6.42936">
        <ele>414.39999389648</ele>
        <time>2024-02-11T15:48:56.000Z</time>
      </trkpt>
      <trkpt lat="48.14477" lon="6.42942">
        <ele>414.60000610352</ele>
        <time>2024-02-11T15:49:02.000Z</time>
      </trkpt>
      <trkpt lat="48.14477" lon="6.42943">
        <ele>414.60000610352</ele>
        <time>2024-02-11T15:49:03.000Z</time>
      </trkpt>
      <trkpt lat="48.14474" lon="6.4295">
        <ele>414.60000610352</ele>
        <time>2024-02-11T15:49:10.000Z</time>
      </trkpt>
      <trkpt lat="48.14471" lon="6.42956">
        <ele>415</ele>
        <time>2024-02-11T15:49:18.000Z</time>
      </trkpt>
      <trkpt lat="48.1447" lon="6.42956">
        <ele>415.20001220703</ele>
        <time>2024-02-11T15:49:19.000Z</time>
      </trkpt>
      <trkpt lat="48.14469" lon="6.42955">
        <ele>415.79998779297</ele>
        <time>2024-02-11T15:49:23.000Z</time>
      </trkpt>
      <trkpt lat="48.14467" lon="6.42958">
        <ele>416.39999389648</ele>
        <time>2024-02-11T15:49:26.000Z</time>
      </trkpt>
      <trkpt lat="48.14467" lon="6.42958">
        <ele>417</ele>
        <time>2024-02-11T15:49:29.000Z</time>
      </trkpt>
      <trkpt lat="48.14463" lon="6.42959">
        <ele>417.39999389648</ele>
        <time>2024-02-11T15:49:32.000Z</time>
      </trkpt>
      <trkpt lat="48.14459" lon="6.42961">
        <ele>418.20001220703</ele>
        <time>2024-02-11T15:49:35.000Z</time>
      </trkpt>
      <trkpt lat="48.14458" lon="6.42961">
        <ele>418.60000610352</ele>
        <time>2024-02-11T15:49:36.000Z</time>
      </trkpt>
      <trkpt lat="48.14455" lon="6.42962">
        <ele>420</ele>
        <time>2024-02-11T15:49:41.000Z</time>
      </trkpt>
      <trkpt lat="48.14451" lon="6.42964">
        <ele>421</ele>
        <time>2024-02-11T15:49:47.000Z</time>
      </trkpt>
      <trkpt lat="48.14443" lon="6.42966">
        <ele>421.20001220703</ele>
        <time>2024-02-11T15:49:51.000Z</time>
      </trkpt>
      <trkpt lat="48.1444" lon="6.42964">
        <ele>421.39999389648</ele>
        <time>2024-02-11T15:49:53.000Z</time>
      </trkpt>
      <trkpt lat="48.14439" lon="6.42963">
        <ele>421.39999389648</ele>
        <time>2024-02-11T15:49:55.000Z</time>
      </trkpt>
      <trkpt lat="48.14436" lon="6.42962">
        <ele>421.79998779297</ele>
        <time>2024-02-11T15:49:58.000Z</time>
      </trkpt>
      <trkpt lat="48.14434" lon="6.42961">
        <ele>422.20001220703</ele>
        <time>2024-02-11T15:50:00.000Z</time>
      </trkpt>
      <trkpt lat="48.14433" lon="6.4296">
        <ele>422.20001220703</ele>
        <time>2024-02-11T15:50:01.000Z</time>
      </trkpt>
      <trkpt lat="48.14433" lon="6.42954">
        <ele>423.20001220703</ele>
        <time>2024-02-11T15:50:07.000Z</time>
      </trkpt>
      <trkpt lat="48.14435" lon="6.42949">
        <ele>424.39999389648</ele>
        <time>2024-02-11T15:50:11.000Z</time>
      </trkpt>
      <trkpt lat="48.14437" lon="6.42947">
        <ele>425</ele>
        <time>2024-02-11T15:50:14.000Z</time>
      </trkpt>
      <trkpt lat="48.14438" lon="6.42944">
        <ele>425.60000610352</ele>
        <time>2024-02-11T15:50:17.000Z</time>
      </trkpt>
      <trkpt lat="48.14436" lon="6.4293">
        <ele>426.39999389648</ele>
        <time>2024-02-11T15:50:23.000Z</time>
      </trkpt>
      <trkpt lat="48.14436" lon="6.42928">
        <ele>426.60000610352</ele>
        <time>2024-02-11T15:50:24.000Z</time>
      </trkpt>
      <trkpt lat="48.14436" lon="6.42929">
        <ele>427.20001220703</ele>
        <time>2024-02-11T15:50:27.000Z</time>
      </trkpt>
      <trkpt lat="48.14436" lon="6.42929">
        <ele>427.39999389648</ele>
        <time>2024-02-11T15:50:31.000Z</time>
      </trkpt>
      <trkpt lat="48.14438" lon="6.42929">
        <ele>427.79998779297</ele>
        <time>2024-02-11T15:50:38.000Z</time>
      </trkpt>
      <trkpt lat="48.14437" lon="6.42927">
        <ele>428.20001220703</ele>
        <time>2024-02-11T15:50:40.000Z</time>
      </trkpt>
      <trkpt lat="48.14437" lon="6.42926">
        <ele>428.79998779297</ele>
        <time>2024-02-11T15:50:43.000Z</time>
      </trkpt>
      <trkpt lat="48.14435" lon="6.42921">
        <ele>430</ele>
        <time>2024-02-11T15:50:49.000Z</time>
      </trkpt>
      <trkpt lat="48.14435" lon="6.42915">
        <ele>430.39999389648</ele>
        <time>2024-02-11T15:50:54.000Z</time>
      </trkpt>
      <trkpt lat="48.14435" lon="6.42912">
        <ele>431</ele>
        <time>2024-02-11T15:50:57.000Z</time>
      </trkpt>
      <trkpt lat="48.14435" lon="6.4291">
        <ele>431.39999389648</ele>
        <time>2024-02-11T15:50:59.000Z</time>
      </trkpt>
      <trkpt lat="48.14434" lon="6.42908">
        <ele>431.79998779297</ele>
        <time>2024-02-11T15:51:04.000Z</time>
      </trkpt>
      <trkpt lat="48.14434" lon="6.42906">
        <ele>432</ele>
        <time>2024-02-11T15:51:06.000Z</time>
      </trkpt>
      <trkpt lat="48.14434" lon="6.42905">
        <ele>432.39999389648</ele>
        <time>2024-02-11T15:51:10.000Z</time>
      </trkpt>
      <trkpt lat="48.14433" lon="6.42903">
        <ele>432.39999389648</ele>
        <time>2024-02-11T15:51:17.000Z</time>
      </trkpt>
      <trkpt lat="48.14431" lon="6.429">
        <ele>433</ele>
        <time>2024-02-11T15:51:26.000Z</time>
      </trkpt>
      <trkpt lat="48.14427" lon="6.42891">
        <ele>434.20001220703</ele>
        <time>2024-02-11T15:51:33.000Z</time>
      </trkpt>
      <trkpt lat="48.14423" lon="6.42882">
        <ele>435</ele>
        <time>2024-02-11T15:51:40.000Z</time>
      </trkpt>
      <trkpt lat="48.14422" lon="6.42878">
        <ele>435.20001220703</ele>
        <time>2024-02-11T15:51:43.000Z</time>
      </trkpt>
      <trkpt lat="48.14422" lon="6.42877">
        <ele>435.20001220703</ele>
        <time>2024-02-11T15:51:44.000Z</time>
      </trkpt>
      <trkpt lat="48.14418" lon="6.42878">
        <ele>435.79998779297</ele>
        <time>2024-02-11T15:51:51.000Z</time>
      </trkpt>
      <trkpt lat="48.14417" lon="6.42874">
        <ele>436</ele>
        <time>2024-02-11T15:51:54.000Z</time>
      </trkpt>
      <trkpt lat="48.14417" lon="6.42869">
        <ele>436.20001220703</ele>
        <time>2024-02-11T15:51:57.000Z</time>
      </trkpt>
      <trkpt lat="48.14417" lon="6.42867">
        <ele>436.39999389648</ele>
        <time>2024-02-11T15:51:58.000Z</time>
      </trkpt>
      <trkpt lat="48.14417" lon="6.42864">
        <ele>436.60000610352</ele>
        <time>2024-02-11T15:51:59.000Z</time>
      </trkpt>
      <trkpt lat="48.14416" lon="6.42859">
        <ele>436.79998779297</ele>
        <time>2024-02-11T15:52:03.000Z</time>
      </trkpt>
      <trkpt lat="48.14416" lon="6.42856">
        <ele>437.39999389648</ele>
        <time>2024-02-11T15:52:05.000Z</time>
      </trkpt>
      <trkpt lat="48.14413" lon="6.42849">
        <ele>438</ele>
        <time>2024-02-11T15:52:10.000Z</time>
      </trkpt>
      <trkpt lat="48.14412" lon="6.42848">
        <ele>438.39999389648</ele>
        <time>2024-02-11T15:52:12.000Z</time>
      </trkpt>
      <trkpt lat="48.14412" lon="6.42847">
        <ele>438.39999389648</ele>
        <time>2024-02-11T15:52:13.000Z</time>
      </trkpt>
      <trkpt lat="48.14411" lon="6.42845">
        <ele>438.60000610352</ele>
        <time>2024-02-11T15:52:14.000Z</time>
      </trkpt>
      <trkpt lat="48.1441" lon="6.42841">
        <ele>439</ele>
        <time>2024-02-11T15:52:17.000Z</time>
      </trkpt>
      <trkpt lat="48.1441" lon="6.42837">
        <ele>439.20001220703</ele>
        <time>2024-02-11T15:52:20.000Z</time>
      </trkpt>
      <trkpt lat="48.14409" lon="6.42837">
        <ele>439.39999389648</ele>
        <time>2024-02-11T15:52:22.000Z</time>
      </trkpt>
      <trkpt lat="48.14406" lon="6.42828">
        <ele>439.79998779297</ele>
        <time>2024-02-11T15:52:28.000Z</time>
      </trkpt>
      <trkpt lat="48.14403" lon="6.42818">
        <ele>440.60000610352</ele>
        <time>2024-02-11T15:52:36.000Z</time>
      </trkpt>
      <trkpt lat="48.14402" lon="6.42816">
        <ele>440.60000610352</ele>
        <time>2024-02-11T15:52:37.000Z</time>
      </trkpt>
      <trkpt lat="48.144" lon="6.42807">
        <ele>441.20001220703</ele>
        <time>2024-02-11T15:52:45.000Z</time>
      </trkpt>
      <trkpt lat="48.14399" lon="6.42803">
        <ele>441.60000610352</ele>
        <time>2024-02-11T15:52:50.000Z</time>
      </trkpt>
      <trkpt lat="48.14399" lon="6.42803">
        <ele>441.79998779297</ele>
        <time>2024-02-11T15:52:51.000Z</time>
      </trkpt>
      <trkpt lat="48.14398" lon="6.42801">
        <ele>441.79998779297</ele>
        <time>2024-02-11T15:52:58.000Z</time>
      </trkpt>
      <trkpt lat="48.14397" lon="6.42795">
        <ele>442</ele>
        <time>2024-02-11T15:53:05.000Z</time>
      </trkpt>
      <trkpt lat="48.14396" lon="6.42794">
        <ele>442.20001220703</ele>
        <time>2024-02-11T15:53:06.000Z</time>
      </trkpt>
      <trkpt lat="48.14393" lon="6.4279">
        <ele>442.39999389648</ele>
        <time>2024-02-11T15:53:10.000Z</time>
      </trkpt>
      <trkpt lat="48.14391" lon="6.42787">
        <ele>442.60000610352</ele>
        <time>2024-02-11T15:53:13.000Z</time>
      </trkpt>
      <trkpt lat="48.14388" lon="6.42782">
        <ele>443</ele>
        <time>2024-02-11T15:53:19.000Z</time>
      </trkpt>
      <trkpt lat="48.14388" lon="6.42774">
        <ele>442.79998779297</ele>
        <time>2024-02-11T15:53:24.000Z</time>
      </trkpt>
      <trkpt lat="48.14387" lon="6.42774">
        <ele>442.60000610352</ele>
        <time>2024-02-11T15:53:25.000Z</time>
      </trkpt>
      <trkpt lat="48.14384" lon="6.4277">
        <ele>442.60000610352</ele>
        <time>2024-02-11T15:53:29.000Z</time>
      </trkpt>
      <trkpt lat="48.14382" lon="6.42766">
        <ele>442.60000610352</ele>
        <time>2024-02-11T15:53:31.000Z</time>
      </trkpt>
      <trkpt lat="48.1438" lon="6.42763">
        <ele>442.79998779297</ele>
        <time>2024-02-11T15:53:33.000Z</time>
      </trkpt>
      <trkpt lat="48.14379" lon="6.42756">
        <ele>443</ele>
        <time>2024-02-11T15:53:37.000Z</time>
      </trkpt>
      <trkpt lat="48.14375" lon="6.42752">
        <ele>443.20001220703</ele>
        <time>2024-02-11T15:53:41.000Z</time>
      </trkpt>
      <trkpt lat="48.14371" lon="6.42748">
        <ele>443.39999389648</ele>
        <time>2024-02-11T15:53:45.000Z</time>
      </trkpt>
      <trkpt lat="48.14371" lon="6.42741">
        <ele>443.60000610352</ele>
        <time>2024-02-11T15:53:49.000Z</time>
      </trkpt>
      <trkpt lat="48.1437" lon="6.4274">
        <ele>443.60000610352</ele>
        <time>2024-02-11T15:53:50.000Z</time>
      </trkpt>
      <trkpt lat="48.14369" lon="6.42734">
        <ele>444</ele>
        <time>2024-02-11T15:53:53.000Z</time>
      </trkpt>
      <trkpt lat="48.14369" lon="6.42731">
        <ele>444.20001220703</ele>
        <time>2024-02-11T15:53:54.000Z</time>
      </trkpt>
      <trkpt lat="48.14367" lon="6.42729">
        <ele>444.79998779297</ele>
        <time>2024-02-11T15:53:57.000Z</time>
      </trkpt>
      <trkpt lat="48.14365" lon="6.42722">
        <ele>445.79998779297</ele>
        <time>2024-02-11T15:54:03.000Z</time>
      </trkpt>
      <trkpt lat="48.14364" lon="6.42719">
        <ele>446.20001220703</ele>
        <time>2024-02-11T15:54:07.000Z</time>
      </trkpt>
      <trkpt lat="48.14362" lon="6.42716">
        <ele>446.79998779297</ele>
        <time>2024-02-11T15:54:10.000Z</time>
      </trkpt>
      <trkpt lat="48.14361" lon="6.42713">
        <ele>447</ele>
        <time>2024-02-11T15:54:12.000Z</time>
      </trkpt>
      <trkpt lat="48.14357" lon="6.42707">
        <ele>448</ele>
        <time>2024-02-11T15:54:19.000Z</time>
      </trkpt>
      <trkpt lat="48.14357" lon="6.42705">
        <ele>448.20001220703</ele>
        <time>2024-02-11T15:54:20.000Z</time>
      </trkpt>
      <trkpt lat="48.14354" lon="6.42701">
        <ele>448.79998779297</ele>
        <time>2024-02-11T15:54:26.000Z</time>
      </trkpt>
      <trkpt lat="48.14353" lon="6.427">
        <ele>449</ele>
        <time>2024-02-11T15:54:28.000Z</time>
      </trkpt>
      <trkpt lat="48.14351" lon="6.42694">
        <ele>449.60000610352</ele>
        <time>2024-02-11T15:54:35.000Z</time>
      </trkpt>
      <trkpt lat="48.14349" lon="6.4269">
        <ele>450</ele>
        <time>2024-02-11T15:54:39.000Z</time>
      </trkpt>
      <trkpt lat="48.14345" lon="6.42688">
        <ele>450.39999389648</ele>
        <time>2024-02-11T15:54:43.000Z</time>
      </trkpt>
      <trkpt lat="48.14344" lon="6.42688">
        <ele>450.60000610352</ele>
        <time>2024-02-11T15:54:44.000Z</time>
      </trkpt>
      <trkpt lat="48.14341" lon="6.42685">
        <ele>451</ele>
        <time>2024-02-11T15:54:47.000Z</time>
      </trkpt>
      <trkpt lat="48.14341" lon="6.42684">
        <ele>451</ele>
        <time>2024-02-11T15:54:48.000Z</time>
      </trkpt>
      <trkpt lat="48.14338" lon="6.42684">
        <ele>451.39999389648</ele>
        <time>2024-02-11T15:54:50.000Z</time>
      </trkpt>
      <trkpt lat="48.14337" lon="6.42683">
        <ele>451.60000610352</ele>
        <time>2024-02-11T15:54:51.000Z</time>
      </trkpt>
      <trkpt lat="48.14335" lon="6.42683">
        <ele>452</ele>
        <time>2024-02-11T15:54:53.000Z</time>
      </trkpt>
      <trkpt lat="48.14334" lon="6.42683">
        <ele>452.20001220703</ele>
        <time>2024-02-11T15:54:54.000Z</time>
      </trkpt>
      <trkpt lat="48.14332" lon="6.42678">
        <ele>453</ele>
        <time>2024-02-11T15:54:59.000Z</time>
      </trkpt>
      <trkpt lat="48.1433" lon="6.42675">
        <ele>453.20001220703</ele>
        <time>2024-02-11T15:55:01.000Z</time>
      </trkpt>
      <trkpt lat="48.1433" lon="6.42667">
        <ele>453.79998779297</ele>
        <time>2024-02-11T15:55:07.000Z</time>
      </trkpt>
      <trkpt lat="48.14327" lon="6.42667">
        <ele>454.20001220703</ele>
        <time>2024-02-11T15:55:09.000Z</time>
      </trkpt>
      <trkpt lat="48.14326" lon="6.42662">
        <ele>454.39999389648</ele>
        <time>2024-02-11T15:55:13.000Z</time>
      </trkpt>
      <trkpt lat="48.14323" lon="6.42654">
        <ele>455.20001220703</ele>
        <time>2024-02-11T15:55:20.000Z</time>
      </trkpt>
      <trkpt lat="48.14323" lon="6.42652">
        <ele>455.39999389648</ele>
        <time>2024-02-11T15:55:21.000Z</time>
      </trkpt>
      <trkpt lat="48.14321" lon="6.42645">
        <ele>455.79998779297</ele>
        <time>2024-02-11T15:55:28.000Z</time>
      </trkpt>
      <trkpt lat="48.14321" lon="6.42643">
        <ele>455.79998779297</ele>
        <time>2024-02-11T15:55:30.000Z</time>
      </trkpt>
      <trkpt lat="48.14321" lon="6.4264">
        <ele>456.20001220703</ele>
        <time>2024-02-11T15:55:32.000Z</time>
      </trkpt>
      <trkpt lat="48.14322" lon="6.42638">
        <ele>456.39999389648</ele>
        <time>2024-02-11T15:55:34.000Z</time>
      </trkpt>
      <trkpt lat="48.14322" lon="6.42634">
        <ele>456.79998779297</ele>
        <time>2024-02-11T15:55:38.000Z</time>
      </trkpt>
      <trkpt lat="48.14323" lon="6.42632">
        <ele>457</ele>
        <time>2024-02-11T15:55:40.000Z</time>
      </trkpt>
      <trkpt lat="48.14324" lon="6.4263">
        <ele>457.20001220703</ele>
        <time>2024-02-11T15:55:42.000Z</time>
      </trkpt>
      <trkpt lat="48.14323" lon="6.42626">
        <ele>458</ele>
        <time>2024-02-11T15:55:47.000Z</time>
      </trkpt>
      <trkpt lat="48.14323" lon="6.42626">
        <ele>458.20001220703</ele>
        <time>2024-02-11T15:55:53.000Z</time>
      </trkpt>
      <trkpt lat="48.14323" lon="6.42626">
        <ele>458</ele>
        <time>2024-02-11T15:55:59.000Z</time>
      </trkpt>
      <trkpt lat="48.14323" lon="6.42626">
        <ele>457.79998779297</ele>
        <time>2024-02-11T15:56:02.000Z</time>
      </trkpt>
      <trkpt lat="48.14323" lon="6.42626">
        <ele>458</ele>
        <time>2024-02-11T15:56:13.000Z</time>
      </trkpt>
      <trkpt lat="48.14323" lon="6.42626">
        <ele>458</ele>
        <time>2024-02-11T15:56:17.000Z</time>
      </trkpt>
      <trkpt lat="48.14323" lon="6.42626">
        <ele>458</ele>
        <time>2024-02-11T15:56:20.000Z</time>
      </trkpt>
      <trkpt lat="48.14324" lon="6.42627">
        <ele>457.79998779297</ele>
        <time>2024-02-11T15:56:25.000Z</time>
      </trkpt>
      <trkpt lat="48.14324" lon="6.42627">
        <ele>457.79998779297</ele>
        <time>2024-02-11T15:56:28.000Z</time>
      </trkpt>
      <trkpt lat="48.14324" lon="6.42627">
        <ele>458</ele>
        <time>2024-02-11T15:56:31.000Z</time>
      </trkpt>
      <trkpt lat="48.14324" lon="6.42627">
        <ele>458.39999389648</ele>
        <time>2024-02-11T15:56:48.000Z</time>
      </trkpt>
      <trkpt lat="48.14324" lon="6.42617">
        <ele>459</ele>
        <time>2024-02-11T15:56:53.000Z</time>
      </trkpt>
      <trkpt lat="48.14323" lon="6.42612">
        <ele>459.39999389648</ele>
        <time>2024-02-11T15:56:56.000Z</time>
      </trkpt>
      <trkpt lat="48.14323" lon="6.42608">
        <ele>459.79998779297</ele>
        <time>2024-02-11T15:56:58.000Z</time>
      </trkpt>
      <trkpt lat="48.14322" lon="6.42602">
        <ele>460.39999389648</ele>
        <time>2024-02-11T15:57:03.000Z</time>
      </trkpt>
      <trkpt lat="48.14321" lon="6.426">
        <ele>460.79998779297</ele>
        <time>2024-02-11T15:57:05.000Z</time>
      </trkpt>
      <trkpt lat="48.14322" lon="6.42598">
        <ele>460.79998779297</ele>
        <time>2024-02-11T15:57:06.000Z</time>
      </trkpt>
      <trkpt lat="48.14322" lon="6.42595">
        <ele>461.20001220703</ele>
        <time>2024-02-11T15:57:08.000Z</time>
      </trkpt>
      <trkpt lat="48.1432" lon="6.42592">
        <ele>461.60000610352</ele>
        <time>2024-02-11T15:57:11.000Z</time>
      </trkpt>
      <trkpt lat="48.1432" lon="6.42584">
        <ele>462</ele>
        <time>2024-02-11T15:57:14.000Z</time>
      </trkpt>
      <trkpt lat="48.14319" lon="6.4258">
        <ele>462.39999389648</ele>
        <time>2024-02-11T15:57:16.000Z</time>
      </trkpt>
      <trkpt lat="48.14317" lon="6.42575">
        <ele>462.79998779297</ele>
        <time>2024-02-11T15:57:19.000Z</time>
      </trkpt>
      <trkpt lat="48.14315" lon="6.42567">
        <ele>463.20001220703</ele>
        <time>2024-02-11T15:57:22.000Z</time>
      </trkpt>
      <trkpt lat="48.14316" lon="6.42563">
        <ele>463.39999389648</ele>
        <time>2024-02-11T15:57:24.000Z</time>
      </trkpt>
      <trkpt lat="48.14317" lon="6.42561">
        <ele>463.60000610352</ele>
        <time>2024-02-11T15:57:25.000Z</time>
      </trkpt>
      <trkpt lat="48.14319" lon="6.42558">
        <ele>463.79998779297</ele>
        <time>2024-02-11T15:57:27.000Z</time>
      </trkpt>
      <trkpt lat="48.14319" lon="6.42558">
        <ele>464</ele>
        <time>2024-02-11T15:57:28.000Z</time>
      </trkpt>
      <trkpt lat="48.14319" lon="6.42556">
        <ele>464.20001220703</ele>
        <time>2024-02-11T15:57:30.000Z</time>
      </trkpt>
      <trkpt lat="48.14319" lon="6.42549">
        <ele>464.79998779297</ele>
        <time>2024-02-11T15:57:35.000Z</time>
      </trkpt>
      <trkpt lat="48.14318" lon="6.42548">
        <ele>465</ele>
        <time>2024-02-11T15:57:37.000Z</time>
      </trkpt>
      <trkpt lat="48.14317" lon="6.42544">
        <ele>465.39999389648</ele>
        <time>2024-02-11T15:57:41.000Z</time>
      </trkpt>
      <trkpt lat="48.14315" lon="6.42537">
        <ele>465.79998779297</ele>
        <time>2024-02-11T15:57:46.000Z</time>
      </trkpt>
      <trkpt lat="48.14315" lon="6.42536">
        <ele>465.79998779297</ele>
        <time>2024-02-11T15:57:47.000Z</time>
      </trkpt>
      <trkpt lat="48.14315" lon="6.42529">
        <ele>466</ele>
        <time>2024-02-11T15:57:51.000Z</time>
      </trkpt>
      <trkpt lat="48.14315" lon="6.42528">
        <ele>466</ele>
        <time>2024-02-11T15:57:53.000Z</time>
      </trkpt>
      <trkpt lat="48.14314" lon="6.42524">
        <ele>466</ele>
        <time>2024-02-11T15:57:56.000Z</time>
      </trkpt>
      <trkpt lat="48.14311" lon="6.4252">
        <ele>466.20001220703</ele>
        <time>2024-02-11T15:57:59.000Z</time>
      </trkpt>
      <trkpt lat="48.14306" lon="6.4251">
        <ele>466.60000610352</ele>
        <time>2024-02-11T15:58:06.000Z</time>
      </trkpt>
      <trkpt lat="48.14306" lon="6.42509">
        <ele>466.79998779297</ele>
        <time>2024-02-11T15:58:07.000Z</time>
      </trkpt>
      <trkpt lat="48.14303" lon="6.42501">
        <ele>466.79998779297</ele>
        <time>2024-02-11T15:58:12.000Z</time>
      </trkpt>
      <trkpt lat="48.14303" lon="6.42499">
        <ele>466.79998779297</ele>
        <time>2024-02-11T15:58:13.000Z</time>
      </trkpt>
      <trkpt lat="48.14304" lon="6.42495">
        <ele>467</ele>
        <time>2024-02-11T15:58:15.000Z</time>
      </trkpt>
      <trkpt lat="48.14304" lon="6.42491">
        <ele>467</ele>
        <time>2024-02-11T15:58:18.000Z</time>
      </trkpt>
      <trkpt lat="48.143" lon="6.42484">
        <ele>467.20001220703</ele>
        <time>2024-02-11T15:58:23.000Z</time>
      </trkpt>
      <trkpt lat="48.14299" lon="6.42483">
        <ele>467.20001220703</ele>
        <time>2024-02-11T15:58:24.000Z</time>
      </trkpt>
      <trkpt lat="48.14298" lon="6.42482">
        <ele>467.20001220703</ele>
        <time>2024-02-11T15:58:25.000Z</time>
      </trkpt>
      <trkpt lat="48.14298" lon="6.42478">
        <ele>467.20001220703</ele>
        <time>2024-02-11T15:58:27.000Z</time>
      </trkpt>
      <trkpt lat="48.14297" lon="6.42474">
        <ele>467.20001220703</ele>
        <time>2024-02-11T15:58:30.000Z</time>
      </trkpt>
      <trkpt lat="48.14294" lon="6.42465">
        <ele>467.39999389648</ele>
        <time>2024-02-11T15:58:36.000Z</time>
      </trkpt>
      <trkpt lat="48.14292" lon="6.42461">
        <ele>467.39999389648</ele>
        <time>2024-02-11T15:58:39.000Z</time>
      </trkpt>
      <trkpt lat="48.14287" lon="6.42448">
        <ele>467.20001220703</ele>
        <time>2024-02-11T15:58:48.000Z</time>
      </trkpt>
      <trkpt lat="48.14283" lon="6.42436">
        <ele>467.20001220703</ele>
        <time>2024-02-11T15:58:55.000Z</time>
      </trkpt>
      <trkpt lat="48.14279" lon="6.42433">
        <ele>467.20001220703</ele>
        <time>2024-02-11T15:58:58.000Z</time>
      </trkpt>
      <trkpt lat="48.14278" lon="6.42422">
        <ele>467</ele>
        <time>2024-02-11T15:59:04.000Z</time>
      </trkpt>
      <trkpt lat="48.14275" lon="6.42418">
        <ele>466.79998779297</ele>
        <time>2024-02-11T15:59:11.000Z</time>
      </trkpt>
      <trkpt lat="48.14272" lon="6.42409">
        <ele>466.79998779297</ele>
        <time>2024-02-11T15:59:16.000Z</time>
      </trkpt>
      <trkpt lat="48.14271" lon="6.42403">
        <ele>466.60000610352</ele>
        <time>2024-02-11T15:59:20.000Z</time>
      </trkpt>
      <trkpt lat="48.14268" lon="6.42399">
        <ele>466.60000610352</ele>
        <time>2024-02-11T15:59:23.000Z</time>
      </trkpt>
      <trkpt lat="48.14266" lon="6.42394">
        <ele>466.60000610352</ele>
        <time>2024-02-11T15:59:27.000Z</time>
      </trkpt>
      <trkpt lat="48.14265" lon="6.4239">
        <ele>466.60000610352</ele>
        <time>2024-02-11T15:59:29.000Z</time>
      </trkpt>
      <trkpt lat="48.14265" lon="6.42388">
        <ele>466.60000610352</ele>
        <time>2024-02-11T15:59:30.000Z</time>
      </trkpt>
      <trkpt lat="48.14263" lon="6.4238">
        <ele>466.39999389648</ele>
        <time>2024-02-11T15:59:36.000Z</time>
      </trkpt>
      <trkpt lat="48.14263" lon="6.42379">
        <ele>466.39999389648</ele>
        <time>2024-02-11T15:59:37.000Z</time>
      </trkpt>
      <trkpt lat="48.14261" lon="6.42374">
        <ele>466.39999389648</ele>
        <time>2024-02-11T15:59:42.000Z</time>
      </trkpt>
      <trkpt lat="48.1426" lon="6.42371">
        <ele>466.39999389648</ele>
        <time>2024-02-11T15:59:44.000Z</time>
      </trkpt>
      <trkpt lat="48.14259" lon="6.42365">
        <ele>466.39999389648</ele>
        <time>2024-02-11T15:59:48.000Z</time>
      </trkpt>
      <trkpt lat="48.14258" lon="6.42357">
        <ele>466.39999389648</ele>
        <time>2024-02-11T15:59:53.000Z</time>
      </trkpt>
      <trkpt lat="48.14256" lon="6.42346">
        <ele>466.60000610352</ele>
        <time>2024-02-11T16:00:00.000Z</time>
      </trkpt>
      <trkpt lat="48.14251" lon="6.42342">
        <ele>466.60000610352</ele>
        <time>2024-02-11T16:00:05.000Z</time>
      </trkpt>
      <trkpt lat="48.14252" lon="6.42341">
        <ele>466.60000610352</ele>
        <time>2024-02-11T16:00:06.000Z</time>
      </trkpt>
      <trkpt lat="48.14249" lon="6.42329">
        <ele>466.79998779297</ele>
        <time>2024-02-11T16:00:13.000Z</time>
      </trkpt>
      <trkpt lat="48.14249" lon="6.42324">
        <ele>466.79998779297</ele>
        <time>2024-02-11T16:00:16.000Z</time>
      </trkpt>
      <trkpt lat="48.14245" lon="6.4231">
        <ele>467</ele>
        <time>2024-02-11T16:00:24.000Z</time>
      </trkpt>
      <trkpt lat="48.14242" lon="6.42302">
        <ele>467.20001220703</ele>
        <time>2024-02-11T16:00:29.000Z</time>
      </trkpt>
      <trkpt lat="48.14242" lon="6.42297">
        <ele>467.39999389648</ele>
        <time>2024-02-11T16:00:32.000Z</time>
      </trkpt>
      <trkpt lat="48.14233" lon="6.42291">
        <ele>467.79998779297</ele>
        <time>2024-02-11T16:00:40.000Z</time>
      </trkpt>
      <trkpt lat="48.14232" lon="6.4229">
        <ele>468</ele>
        <time>2024-02-11T16:00:41.000Z</time>
      </trkpt>
      <trkpt lat="48.14231" lon="6.42274">
        <ele>468.60000610352</ele>
        <time>2024-02-11T16:00:50.000Z</time>
      </trkpt>
      <trkpt lat="48.14229" lon="6.42266">
        <ele>469</ele>
        <time>2024-02-11T16:00:55.000Z</time>
      </trkpt>
      <trkpt lat="48.14229" lon="6.42264">
        <ele>469</ele>
        <time>2024-02-11T16:00:56.000Z</time>
      </trkpt>
      <trkpt lat="48.14227" lon="6.42259">
        <ele>469.39999389648</ele>
        <time>2024-02-11T16:01:00.000Z</time>
      </trkpt>
      <trkpt lat="48.14225" lon="6.4225">
        <ele>470.20001220703</ele>
        <time>2024-02-11T16:01:06.000Z</time>
      </trkpt>
      <trkpt lat="48.14224" lon="6.42246">
        <ele>470.39999389648</ele>
        <time>2024-02-11T16:01:09.000Z</time>
      </trkpt>
      <trkpt lat="48.14221" lon="6.42238">
        <ele>470.79998779297</ele>
        <time>2024-02-11T16:01:14.000Z</time>
      </trkpt>
      <trkpt lat="48.1422" lon="6.42237">
        <ele>470.79998779297</ele>
        <time>2024-02-11T16:01:15.000Z</time>
      </trkpt>
      <trkpt lat="48.14221" lon="6.42234">
        <ele>471</ele>
        <time>2024-02-11T16:01:17.000Z</time>
      </trkpt>
      <trkpt lat="48.14221" lon="6.42231">
        <ele>471.20001220703</ele>
        <time>2024-02-11T16:01:19.000Z</time>
      </trkpt>
      <trkpt lat="48.14221" lon="6.4223">
        <ele>471.39999389648</ele>
        <time>2024-02-11T16:01:20.000Z</time>
      </trkpt>
      <trkpt lat="48.14218" lon="6.42222">
        <ele>471.60000610352</ele>
        <time>2024-02-11T16:01:25.000Z</time>
      </trkpt>
      <trkpt lat="48.14214" lon="6.4221">
        <ele>472.39999389648</ele>
        <time>2024-02-11T16:01:32.000Z</time>
      </trkpt>
      <trkpt lat="48.14213" lon="6.42207">
        <ele>472.39999389648</ele>
        <time>2024-02-11T16:01:34.000Z</time>
      </trkpt>
      <trkpt lat="48.14212" lon="6.42203">
        <ele>472.79998779297</ele>
        <time>2024-02-11T16:01:37.000Z</time>
      </trkpt>
      <trkpt lat="48.14209" lon="6.42199">
        <ele>473</ele>
        <time>2024-02-11T16:01:40.000Z</time>
      </trkpt>
      <trkpt lat="48.14209" lon="6.42198">
        <ele>473</ele>
        <time>2024-02-11T16:01:41.000Z</time>
      </trkpt>
      <trkpt lat="48.14209" lon="6.42196">
        <ele>473</ele>
        <time>2024-02-11T16:01:42.000Z</time>
      </trkpt>
      <trkpt lat="48.14208" lon="6.42192">
        <ele>473.39999389648</ele>
        <time>2024-02-11T16:01:45.000Z</time>
      </trkpt>
      <trkpt lat="48.14207" lon="6.4219">
        <ele>473.39999389648</ele>
        <time>2024-02-11T16:01:47.000Z</time>
      </trkpt>
      <trkpt lat="48.14205" lon="6.42181">
        <ele>473.79998779297</ele>
        <time>2024-02-11T16:01:52.000Z</time>
      </trkpt>
      <trkpt lat="48.14203" lon="6.42177">
        <ele>474.20001220703</ele>
        <time>2024-02-11T16:01:55.000Z</time>
      </trkpt>
      <trkpt lat="48.14202" lon="6.42171">
        <ele>474.39999389648</ele>
        <time>2024-02-11T16:01:59.000Z</time>
      </trkpt>
      <trkpt lat="48.14201" lon="6.42164">
        <ele>474.60000610352</ele>
        <time>2024-02-11T16:02:03.000Z</time>
      </trkpt>
      <trkpt lat="48.14196" lon="6.42149">
        <ele>475.20001220703</ele>
        <time>2024-02-11T16:02:13.000Z</time>
      </trkpt>
      <trkpt lat="48.14192" lon="6.4214">
        <ele>475.39999389648</ele>
        <time>2024-02-11T16:02:19.000Z</time>
      </trkpt>
      <trkpt lat="48.14191" lon="6.42135">
        <ele>475.39999389648</ele>
        <time>2024-02-11T16:02:22.000Z</time>
      </trkpt>
      <trkpt lat="48.14191" lon="6.42133">
        <ele>475.39999389648</ele>
        <time>2024-02-11T16:02:23.000Z</time>
      </trkpt>
      <trkpt lat="48.14188" lon="6.42124">
        <ele>475.79998779297</ele>
        <time>2024-02-11T16:02:30.000Z</time>
      </trkpt>
      <trkpt lat="48.14184" lon="6.42113">
        <ele>476</ele>
        <time>2024-02-11T16:02:38.000Z</time>
      </trkpt>
      <trkpt lat="48.1418" lon="6.42107">
        <ele>476</ele>
        <time>2024-02-11T16:02:43.000Z</time>
      </trkpt>
      <trkpt lat="48.14179" lon="6.42103">
        <ele>476</ele>
        <time>2024-02-11T16:02:46.000Z</time>
      </trkpt>
      <trkpt lat="48.14175" lon="6.42096">
        <ele>476.20001220703</ele>
        <time>2024-02-11T16:02:51.000Z</time>
      </trkpt>
      <trkpt lat="48.14175" lon="6.42092">
        <ele>476.20001220703</ele>
        <time>2024-02-11T16:02:53.000Z</time>
      </trkpt>
      <trkpt lat="48.14171" lon="6.42079">
        <ele>476</ele>
        <time>2024-02-11T16:03:02.000Z</time>
      </trkpt>
      <trkpt lat="48.14169" lon="6.42068">
        <ele>476</ele>
        <time>2024-02-11T16:03:08.000Z</time>
      </trkpt>
      <trkpt lat="48.14164" lon="6.42064">
        <ele>475.79998779297</ele>
        <time>2024-02-11T16:03:12.000Z</time>
      </trkpt>
      <trkpt lat="48.14163" lon="6.42057">
        <ele>475.79998779297</ele>
        <time>2024-02-11T16:03:17.000Z</time>
      </trkpt>
      <trkpt lat="48.14162" lon="6.42052">
        <ele>475.79998779297</ele>
        <time>2024-02-11T16:03:20.000Z</time>
      </trkpt>
      <trkpt lat="48.1416" lon="6.42042">
        <ele>475.60000610352</ele>
        <time>2024-02-11T16:03:26.000Z</time>
      </trkpt>
      <trkpt lat="48.14151" lon="6.42028">
        <ele>475.60000610352</ele>
        <time>2024-02-11T16:03:37.000Z</time>
      </trkpt>
      <trkpt lat="48.1415" lon="6.42028">
        <ele>475.60000610352</ele>
        <time>2024-02-11T16:03:38.000Z</time>
      </trkpt>
      <trkpt lat="48.14149" lon="6.4202">
        <ele>475.39999389648</ele>
        <time>2024-02-11T16:03:44.000Z</time>
      </trkpt>
      <trkpt lat="48.14148" lon="6.42008">
        <ele>475.60000610352</ele>
        <time>2024-02-11T16:03:51.000Z</time>
      </trkpt>
      <trkpt lat="48.14146" lon="6.42006">
        <ele>475.60000610352</ele>
        <time>2024-02-11T16:03:53.000Z</time>
      </trkpt>
      <trkpt lat="48.14144" lon="6.42005">
        <ele>475.60000610352</ele>
        <time>2024-02-11T16:03:55.000Z</time>
      </trkpt>
      <trkpt lat="48.14142" lon="6.42">
        <ele>475.60000610352</ele>
        <time>2024-02-11T16:03:59.000Z</time>
      </trkpt>
      <trkpt lat="48.14142" lon="6.41985">
        <ele>475.79998779297</ele>
        <time>2024-02-11T16:04:07.000Z</time>
      </trkpt>
      <trkpt lat="48.14142" lon="6.41978">
        <ele>475.79998779297</ele>
        <time>2024-02-11T16:04:11.000Z</time>
      </trkpt>
      <trkpt lat="48.14142" lon="6.41971">
        <ele>476</ele>
        <time>2024-02-11T16:04:16.000Z</time>
      </trkpt>
      <trkpt lat="48.14137" lon="6.41962">
        <ele>476</ele>
        <time>2024-02-11T16:04:24.000Z</time>
      </trkpt>
      <trkpt lat="48.14137" lon="6.41951">
        <ele>476.20001220703</ele>
        <time>2024-02-11T16:04:29.000Z</time>
      </trkpt>
      <trkpt lat="48.14133" lon="6.41949">
        <ele>476.20001220703</ele>
        <time>2024-02-11T16:04:31.000Z</time>
      </trkpt>
      <trkpt lat="48.14133" lon="6.41945">
        <ele>476.20001220703</ele>
        <time>2024-02-11T16:04:33.000Z</time>
      </trkpt>
      <trkpt lat="48.1413" lon="6.41941">
        <ele>476.39999389648</ele>
        <time>2024-02-11T16:04:36.000Z</time>
      </trkpt>
      <trkpt lat="48.14127" lon="6.41937">
        <ele>476.39999389648</ele>
        <time>2024-02-11T16:04:38.000Z</time>
      </trkpt>
      <trkpt lat="48.14124" lon="6.41925">
        <ele>477</ele>
        <time>2024-02-11T16:04:47.000Z</time>
      </trkpt>
      <trkpt lat="48.14122" lon="6.41919">
        <ele>477</ele>
        <time>2024-02-11T16:04:51.000Z</time>
      </trkpt>
      <trkpt lat="48.1412" lon="6.41903">
        <ele>477.39999389648</ele>
        <time>2024-02-11T16:04:57.000Z</time>
      </trkpt>
      <trkpt lat="48.14119" lon="6.41899">
        <ele>477.39999389648</ele>
        <time>2024-02-11T16:05:02.000Z</time>
      </trkpt>
      <trkpt lat="48.1412" lon="6.41898">
        <ele>477.39999389648</ele>
        <time>2024-02-11T16:05:03.000Z</time>
      </trkpt>
      <trkpt lat="48.14121" lon="6.41897">
        <ele>476.79998779297</ele>
        <time>2024-02-11T16:05:08.000Z</time>
      </trkpt>
      <trkpt lat="48.14114" lon="6.4189">
        <ele>477.20001220703</ele>
        <time>2024-02-11T16:05:14.000Z</time>
      </trkpt>
      <trkpt lat="48.1411" lon="6.41876">
        <ele>477</ele>
        <time>2024-02-11T16:05:21.000Z</time>
      </trkpt>
      <trkpt lat="48.14105" lon="6.41862">
        <ele>476.79998779297</ele>
        <time>2024-02-11T16:05:29.000Z</time>
      </trkpt>
      <trkpt lat="48.14105" lon="6.41861">
        <ele>476.60000610352</ele>
        <time>2024-02-11T16:05:30.000Z</time>
      </trkpt>
      <trkpt lat="48.14104" lon="6.41857">
        <ele>476.60000610352</ele>
        <time>2024-02-11T16:05:33.000Z</time>
      </trkpt>
      <trkpt lat="48.14102" lon="6.41853">
        <ele>476.39999389648</ele>
        <time>2024-02-11T16:05:36.000Z</time>
      </trkpt>
      <trkpt lat="48.14099" lon="6.41838">
        <ele>475.79998779297</ele>
        <time>2024-02-11T16:05:44.000Z</time>
      </trkpt>
      <trkpt lat="48.14097" lon="6.41827">
        <ele>475.39999389648</ele>
        <time>2024-02-11T16:05:49.000Z</time>
      </trkpt>
      <trkpt lat="48.14099" lon="6.4182">
        <ele>474.79998779297</ele>
        <time>2024-02-11T16:05:53.000Z</time>
      </trkpt>
      <trkpt lat="48.141" lon="6.41815">
        <ele>474.39999389648</ele>
        <time>2024-02-11T16:05:55.000Z</time>
      </trkpt>
      <trkpt lat="48.14103" lon="6.41809">
        <ele>473.79998779297</ele>
        <time>2024-02-11T16:05:59.000Z</time>
      </trkpt>
      <trkpt lat="48.14102" lon="6.41805">
        <ele>473.39999389648</ele>
        <time>2024-02-11T16:06:01.000Z</time>
      </trkpt>
      <trkpt lat="48.14099" lon="6.41801">
        <ele>472.39999389648</ele>
        <time>2024-02-11T16:06:04.000Z</time>
      </trkpt>
      <trkpt lat="48.14099" lon="6.41799">
        <ele>472</ele>
        <time>2024-02-11T16:06:05.000Z</time>
      </trkpt>
      <trkpt lat="48.14099" lon="6.41796">
        <ele>471.39999389648</ele>
        <time>2024-02-11T16:06:07.000Z</time>
      </trkpt>
      <trkpt lat="48.14098" lon="6.41795">
        <ele>471.20001220703</ele>
        <time>2024-02-11T16:06:08.000Z</time>
      </trkpt>
      <trkpt lat="48.14099" lon="6.41788">
        <ele>470</ele>
        <time>2024-02-11T16:06:13.000Z</time>
      </trkpt>
      <trkpt lat="48.14099" lon="6.41787">
        <ele>469.79998779297</ele>
        <time>2024-02-11T16:06:14.000Z</time>
      </trkpt>
      <trkpt lat="48.14098" lon="6.41784">
        <ele>469.60000610352</ele>
        <time>2024-02-11T16:06:16.000Z</time>
      </trkpt>
      <trkpt lat="48.14097" lon="6.41778">
        <ele>469</ele>
        <time>2024-02-11T16:06:19.000Z</time>
      </trkpt>
      <trkpt lat="48.14097" lon="6.41777">
        <ele>468.79998779297</ele>
        <time>2024-02-11T16:06:20.000Z</time>
      </trkpt>
      <trkpt lat="48.14097" lon="6.41767">
        <ele>467.60000610352</ele>
        <time>2024-02-11T16:06:24.000Z</time>
      </trkpt>
      <trkpt lat="48.14095" lon="6.41762">
        <ele>467.20001220703</ele>
        <time>2024-02-11T16:06:28.000Z</time>
      </trkpt>
      <trkpt lat="48.14094" lon="6.41761">
        <ele>467</ele>
        <time>2024-02-11T16:06:30.000Z</time>
      </trkpt>
      <trkpt lat="48.14093" lon="6.41756">
        <ele>466.60000610352</ele>
        <time>2024-02-11T16:06:33.000Z</time>
      </trkpt>
      <trkpt lat="48.14093" lon="6.41754">
        <ele>466.39999389648</ele>
        <time>2024-02-11T16:06:34.000Z</time>
      </trkpt>
      <trkpt lat="48.14093" lon="6.41753">
        <ele>466</ele>
        <time>2024-02-11T16:06:35.000Z</time>
      </trkpt>
      <trkpt lat="48.1409" lon="6.41749">
        <ele>465.39999389648</ele>
        <time>2024-02-11T16:06:38.000Z</time>
      </trkpt>
      <trkpt lat="48.14087" lon="6.41744">
        <ele>464.39999389648</ele>
        <time>2024-02-11T16:06:42.000Z</time>
      </trkpt>
      <trkpt lat="48.14084" lon="6.41742">
        <ele>463.79998779297</ele>
        <time>2024-02-11T16:06:44.000Z</time>
      </trkpt>
      <trkpt lat="48.14082" lon="6.41739">
        <ele>463.39999389648</ele>
        <time>2024-02-11T16:06:46.000Z</time>
      </trkpt>
      <trkpt lat="48.14078" lon="6.41735">
        <ele>462.39999389648</ele>
        <time>2024-02-11T16:06:49.000Z</time>
      </trkpt>
      <trkpt lat="48.14077" lon="6.41734">
        <ele>462</ele>
        <time>2024-02-11T16:06:50.000Z</time>
      </trkpt>
      <trkpt lat="48.14076" lon="6.41732">
        <ele>461.20001220703</ele>
        <time>2024-02-11T16:06:53.000Z</time>
      </trkpt>
      <trkpt lat="48.14073" lon="6.4173">
        <ele>460.79998779297</ele>
        <time>2024-02-11T16:06:55.000Z</time>
      </trkpt>
      <trkpt lat="48.14069" lon="6.41723">
        <ele>459.79998779297</ele>
        <time>2024-02-11T16:07:01.000Z</time>
      </trkpt>
      <trkpt lat="48.14067" lon="6.4172">
        <ele>459.39999389648</ele>
        <time>2024-02-11T16:07:03.000Z</time>
      </trkpt>
      <trkpt lat="48.14065" lon="6.41715">
        <ele>458.79998779297</ele>
        <time>2024-02-11T16:07:11.000Z</time>
      </trkpt>
      <trkpt lat="48.14062" lon="6.41707">
        <ele>458.79998779297</ele>
        <time>2024-02-11T16:07:17.000Z</time>
      </trkpt>
      <trkpt lat="48.14062" lon="6.41705">
        <ele>458.79998779297</ele>
        <time>2024-02-11T16:07:19.000Z</time>
      </trkpt>
      <trkpt lat="48.1406" lon="6.417">
        <ele>459.20001220703</ele>
        <time>2024-02-11T16:07:23.000Z</time>
      </trkpt>
      <trkpt lat="48.14059" lon="6.41698">
        <ele>459.39999389648</ele>
        <time>2024-02-11T16:07:25.000Z</time>
      </trkpt>
      <trkpt lat="48.14056" lon="6.41693">
        <ele>459.39999389648</ele>
        <time>2024-02-11T16:07:29.000Z</time>
      </trkpt>
      <trkpt lat="48.14052" lon="6.41692">
        <ele>459.39999389648</ele>
        <time>2024-02-11T16:07:32.000Z</time>
      </trkpt>
      <trkpt lat="48.1405" lon="6.41687">
        <ele>459.20001220703</ele>
        <time>2024-02-11T16:07:35.000Z</time>
      </trkpt>
      <trkpt lat="48.14049" lon="6.41682">
        <ele>459</ele>
        <time>2024-02-11T16:07:38.000Z</time>
      </trkpt>
      <trkpt lat="48.14048" lon="6.41681">
        <ele>459</ele>
        <time>2024-02-11T16:07:39.000Z</time>
      </trkpt>
      <trkpt lat="48.14048" lon="6.41679">
        <ele>459</ele>
        <time>2024-02-11T16:07:40.000Z</time>
      </trkpt>
      <trkpt lat="48.14047" lon="6.41676">
        <ele>458.79998779297</ele>
        <time>2024-02-11T16:07:42.000Z</time>
      </trkpt>
      <trkpt lat="48.14046" lon="6.41674">
        <ele>458.79998779297</ele>
        <time>2024-02-11T16:07:43.000Z</time>
      </trkpt>
      <trkpt lat="48.14046" lon="6.41672">
        <ele>458.79998779297</ele>
        <time>2024-02-11T16:07:45.000Z</time>
      </trkpt>
      <trkpt lat="48.14046" lon="6.4167">
        <ele>458.79998779297</ele>
        <time>2024-02-11T16:07:46.000Z</time>
      </trkpt>
      <trkpt lat="48.14045" lon="6.41667">
        <ele>458.60000610352</ele>
        <time>2024-02-11T16:07:48.000Z</time>
      </trkpt>
      <trkpt lat="48.14043" lon="6.41654">
        <ele>458.39999389648</ele>
        <time>2024-02-11T16:07:54.000Z</time>
      </trkpt>
      <trkpt lat="48.14043" lon="6.41652">
        <ele>458.39999389648</ele>
        <time>2024-02-11T16:07:55.000Z</time>
      </trkpt>
      <trkpt lat="48.14042" lon="6.41651">
        <ele>458.20001220703</ele>
        <time>2024-02-11T16:07:57.000Z</time>
      </trkpt>
      <trkpt lat="48.14039" lon="6.41646">
        <ele>457.79998779297</ele>
        <time>2024-02-11T16:08:01.000Z</time>
      </trkpt>
      <trkpt lat="48.14033" lon="6.41631">
        <ele>457.79998779297</ele>
        <time>2024-02-11T16:08:09.000Z</time>
      </trkpt>
      <trkpt lat="48.14033" lon="6.41626">
        <ele>457.60000610352</ele>
        <time>2024-02-11T16:08:11.000Z</time>
      </trkpt>
      <trkpt lat="48.14027" lon="6.41616">
        <ele>457.39999389648</ele>
        <time>2024-02-11T16:08:19.000Z</time>
      </trkpt>
      <trkpt lat="48.14022" lon="6.41597">
        <ele>457</ele>
        <time>2024-02-11T16:08:28.000Z</time>
      </trkpt>
      <trkpt lat="48.14017" lon="6.4159">
        <ele>456.60000610352</ele>
        <time>2024-02-11T16:08:31.000Z</time>
      </trkpt>
      <trkpt lat="48.14014" lon="6.41586">
        <ele>456.39999389648</ele>
        <time>2024-02-11T16:08:35.000Z</time>
      </trkpt>
      <trkpt lat="48.14012" lon="6.41579">
        <ele>456.20001220703</ele>
        <time>2024-02-11T16:08:39.000Z</time>
      </trkpt>
      <trkpt lat="48.14011" lon="6.41573">
        <ele>455.79998779297</ele>
        <time>2024-02-11T16:08:43.000Z</time>
      </trkpt>
      <trkpt lat="48.1401" lon="6.41572">
        <ele>455.60000610352</ele>
        <time>2024-02-11T16:08:44.000Z</time>
      </trkpt>
      <trkpt lat="48.14008" lon="6.4156">
        <ele>454.79998779297</ele>
        <time>2024-02-11T16:08:51.000Z</time>
      </trkpt>
      <trkpt lat="48.14007" lon="6.41551">
        <ele>454.60000610352</ele>
        <time>2024-02-11T16:08:54.000Z</time>
      </trkpt>
      <trkpt lat="48.14005" lon="6.41549">
        <ele>454.39999389648</ele>
        <time>2024-02-11T16:08:56.000Z</time>
      </trkpt>
      <trkpt lat="48.14002" lon="6.41545">
        <ele>454</ele>
        <time>2024-02-11T16:08:59.000Z</time>
      </trkpt>
      <trkpt lat="48.14" lon="6.41535">
        <ele>453.60000610352</ele>
        <time>2024-02-11T16:09:06.000Z</time>
      </trkpt>
      <trkpt lat="48.14" lon="6.41527">
        <ele>453.60000610352</ele>
        <time>2024-02-11T16:09:09.000Z</time>
      </trkpt>
      <trkpt lat="48.14002" lon="6.41522">
        <ele>453.39999389648</ele>
        <time>2024-02-11T16:09:12.000Z</time>
      </trkpt>
      <trkpt lat="48.14002" lon="6.4152">
        <ele>453.39999389648</ele>
        <time>2024-02-11T16:09:13.000Z</time>
      </trkpt>
      <trkpt lat="48.13999" lon="6.41513">
        <ele>453.39999389648</ele>
        <time>2024-02-11T16:09:17.000Z</time>
      </trkpt>
      <trkpt lat="48.13997" lon="6.41509">
        <ele>453.39999389648</ele>
        <time>2024-02-11T16:09:19.000Z</time>
      </trkpt>
      <trkpt lat="48.1399" lon="6.41495">
        <ele>453.20001220703</ele>
        <time>2024-02-11T16:09:27.000Z</time>
      </trkpt>
      <trkpt lat="48.13982" lon="6.41476">
        <ele>453</ele>
        <time>2024-02-11T16:09:37.000Z</time>
      </trkpt>
      <trkpt lat="48.1398" lon="6.41468">
        <ele>453</ele>
        <time>2024-02-11T16:09:43.000Z</time>
      </trkpt>
      <trkpt lat="48.13978" lon="6.41466">
        <ele>453</ele>
        <time>2024-02-11T16:09:44.000Z</time>
      </trkpt>
      <trkpt lat="48.13978" lon="6.41465">
        <ele>452.79998779297</ele>
        <time>2024-02-11T16:09:45.000Z</time>
      </trkpt>
      <trkpt lat="48.13974" lon="6.41455">
        <ele>452.60000610352</ele>
        <time>2024-02-11T16:09:51.000Z</time>
      </trkpt>
      <trkpt lat="48.13971" lon="6.41456">
        <ele>452.60000610352</ele>
        <time>2024-02-11T16:09:52.000Z</time>
      </trkpt>
      <trkpt lat="48.13971" lon="6.41455">
        <ele>452.60000610352</ele>
        <time>2024-02-11T16:09:53.000Z</time>
      </trkpt>
      <trkpt lat="48.13969" lon="6.41448">
        <ele>452.39999389648</ele>
        <time>2024-02-11T16:09:56.000Z</time>
      </trkpt>
      <trkpt lat="48.13968" lon="6.4144">
        <ele>452.39999389648</ele>
        <time>2024-02-11T16:09:58.000Z</time>
      </trkpt>
      <trkpt lat="48.13966" lon="6.41429">
        <ele>452.39999389648</ele>
        <time>2024-02-11T16:10:07.000Z</time>
      </trkpt>
      <trkpt lat="48.13962" lon="6.41425">
        <ele>452.20001220703</ele>
        <time>2024-02-11T16:10:10.000Z</time>
      </trkpt>
      <trkpt lat="48.13961" lon="6.4142">
        <ele>452.20001220703</ele>
        <time>2024-02-11T16:10:13.000Z</time>
      </trkpt>
      <trkpt lat="48.13958" lon="6.41412">
        <ele>452.20001220703</ele>
        <time>2024-02-11T16:10:16.000Z</time>
      </trkpt>
      <trkpt lat="48.13958" lon="6.41409">
        <ele>452.20001220703</ele>
        <time>2024-02-11T16:10:17.000Z</time>
      </trkpt>
      <trkpt lat="48.13959" lon="6.41404">
        <ele>452</ele>
        <time>2024-02-11T16:10:21.000Z</time>
      </trkpt>
      <trkpt lat="48.13957" lon="6.41387">
        <ele>451.79998779297</ele>
        <time>2024-02-11T16:10:30.000Z</time>
      </trkpt>
      <trkpt lat="48.13955" lon="6.41379">
        <ele>451.39999389648</ele>
        <time>2024-02-11T16:10:35.000Z</time>
      </trkpt>
      <trkpt lat="48.13952" lon="6.41371">
        <ele>451.20001220703</ele>
        <time>2024-02-11T16:10:40.000Z</time>
      </trkpt>
      <trkpt lat="48.13947" lon="6.41358">
        <ele>451</ele>
        <time>2024-02-11T16:10:48.000Z</time>
      </trkpt>
      <trkpt lat="48.13944" lon="6.41345">
        <ele>450.39999389648</ele>
        <time>2024-02-11T16:10:57.000Z</time>
      </trkpt>
      <trkpt lat="48.13941" lon="6.41333">
        <ele>450</ele>
        <time>2024-02-11T16:11:04.000Z</time>
      </trkpt>
      <trkpt lat="48.13938" lon="6.41326">
        <ele>449.79998779297</ele>
        <time>2024-02-11T16:11:08.000Z</time>
      </trkpt>
      <trkpt lat="48.13935" lon="6.41319">
        <ele>449.39999389648</ele>
        <time>2024-02-11T16:11:13.000Z</time>
      </trkpt>
      <trkpt lat="48.13934" lon="6.41316">
        <ele>449.20001220703</ele>
        <time>2024-02-11T16:11:17.000Z</time>
      </trkpt>
      <trkpt lat="48.13933" lon="6.41306">
        <ele>449</ele>
        <time>2024-02-11T16:11:21.000Z</time>
      </trkpt>
      <trkpt lat="48.1393" lon="6.413">
        <ele>448.60000610352</ele>
        <time>2024-02-11T16:11:25.000Z</time>
      </trkpt>
      <trkpt lat="48.1393" lon="6.41298">
        <ele>448.39999389648</ele>
        <time>2024-02-11T16:11:27.000Z</time>
      </trkpt>
      <trkpt lat="48.13927" lon="6.41285">
        <ele>447.60000610352</ele>
        <time>2024-02-11T16:11:33.000Z</time>
      </trkpt>
      <trkpt lat="48.13924" lon="6.4128">
        <ele>447.39999389648</ele>
        <time>2024-02-11T16:11:36.000Z</time>
      </trkpt>
      <trkpt lat="48.13924" lon="6.41272">
        <ele>446.79998779297</ele>
        <time>2024-02-11T16:11:41.000Z</time>
      </trkpt>
      <trkpt lat="48.13923" lon="6.41268">
        <ele>446.60000610352</ele>
        <time>2024-02-11T16:11:44.000Z</time>
      </trkpt>
      <trkpt lat="48.13916" lon="6.41265">
        <ele>446.39999389648</ele>
        <time>2024-02-11T16:11:48.000Z</time>
      </trkpt>
      <trkpt lat="48.13914" lon="6.41262">
        <ele>446.20001220703</ele>
        <time>2024-02-11T16:11:51.000Z</time>
      </trkpt>
      <trkpt lat="48.13914" lon="6.41259">
        <ele>446.20001220703</ele>
        <time>2024-02-11T16:11:53.000Z</time>
      </trkpt>
      <trkpt lat="48.13914" lon="6.41254">
        <ele>446.20001220703</ele>
        <time>2024-02-11T16:11:56.000Z</time>
      </trkpt>
      <trkpt lat="48.13912" lon="6.41247">
        <ele>446</ele>
        <time>2024-02-11T16:12:04.000Z</time>
      </trkpt>
      <trkpt lat="48.13912" lon="6.41248">
        <ele>446.20001220703</ele>
        <time>2024-02-11T16:12:14.000Z</time>
      </trkpt>
      <trkpt lat="48.13912" lon="6.41248">
        <ele>446.20001220703</ele>
        <time>2024-02-11T16:12:19.000Z</time>
      </trkpt>
      <trkpt lat="48.13912" lon="6.41246">
        <ele>446.20001220703</ele>
        <time>2024-02-11T16:12:37.000Z</time>
      </trkpt>
      <trkpt lat="48.13912" lon="6.41246">
        <ele>446.20001220703</ele>
        <time>2024-02-11T16:12:49.000Z</time>
      </trkpt>
      <trkpt lat="48.13912" lon="6.41246">
        <ele>446</ele>
        <time>2024-02-11T16:12:56.000Z</time>
      </trkpt>
      <trkpt lat="48.13912" lon="6.41246">
        <ele>445.79998779297</ele>
        <time>2024-02-11T16:12:59.000Z</time>
      </trkpt>
      <trkpt lat="48.13912" lon="6.41246">
        <ele>445.60000610352</ele>
        <time>2024-02-11T16:13:01.000Z</time>
      </trkpt>
      <trkpt lat="48.1391" lon="6.41248">
        <ele>445.20001220703</ele>
        <time>2024-02-11T16:13:03.000Z</time>
      </trkpt>
      <trkpt lat="48.13906" lon="6.41254">
        <ele>444.79998779297</ele>
        <time>2024-02-11T16:13:06.000Z</time>
      </trkpt>
      <trkpt lat="48.139" lon="6.41265">
        <ele>444.20001220703</ele>
        <time>2024-02-11T16:13:12.000Z</time>
      </trkpt>
      <trkpt lat="48.13898" lon="6.41268">
        <ele>444</ele>
        <time>2024-02-11T16:13:14.000Z</time>
      </trkpt>
      <trkpt lat="48.13893" lon="6.41274">
        <ele>443.20001220703</ele>
        <time>2024-02-11T16:13:20.000Z</time>
      </trkpt>
      <trkpt lat="48.13893" lon="6.41275">
        <ele>443</ele>
        <time>2024-02-11T16:13:21.000Z</time>
      </trkpt>
      <trkpt lat="48.13893" lon="6.41276">
        <ele>443</ele>
        <time>2024-02-11T16:13:22.000Z</time>
      </trkpt>
      <trkpt lat="48.13891" lon="6.4128">
        <ele>442.39999389648</ele>
        <time>2024-02-11T16:13:28.000Z</time>
      </trkpt>
      <trkpt lat="48.1389" lon="6.4128">
        <ele>442.20001220703</ele>
        <time>2024-02-11T16:13:31.000Z</time>
      </trkpt>
      <trkpt lat="48.13889" lon="6.41281">
        <ele>441.79998779297</ele>
        <time>2024-02-11T16:13:34.000Z</time>
      </trkpt>
      <trkpt lat="48.13885" lon="6.41286">
        <ele>441.20001220703</ele>
        <time>2024-02-11T16:13:43.000Z</time>
      </trkpt>
      <trkpt lat="48.13884" lon="6.41287">
        <ele>441.20001220703</ele>
        <time>2024-02-11T16:13:44.000Z</time>
      </trkpt>
      <trkpt lat="48.13878" lon="6.41293">
        <ele>440.79998779297</ele>
        <time>2024-02-11T16:13:50.000Z</time>
      </trkpt>
      <trkpt lat="48.13872" lon="6.41299">
        <ele>440.20001220703</ele>
        <time>2024-02-11T16:13:56.000Z</time>
      </trkpt>
      <trkpt lat="48.13871" lon="6.413">
        <ele>440</ele>
        <time>2024-02-11T16:13:57.000Z</time>
      </trkpt>
      <trkpt lat="48.13861" lon="6.41315">
        <ele>439.60000610352</ele>
        <time>2024-02-11T16:14:06.000Z</time>
      </trkpt>
      <trkpt lat="48.13855" lon="6.41321">
        <ele>439.39999389648</ele>
        <time>2024-02-11T16:14:12.000Z</time>
      </trkpt>
      <trkpt lat="48.13853" lon="6.41323">
        <ele>439.39999389648</ele>
        <time>2024-02-11T16:14:15.000Z</time>
      </trkpt>
      <trkpt lat="48.13849" lon="6.41325">
        <ele>439.39999389648</ele>
        <time>2024-02-11T16:14:21.000Z</time>
      </trkpt>
      <trkpt lat="48.13844" lon="6.41331">
        <ele>439</ele>
        <time>2024-02-11T16:14:28.000Z</time>
      </trkpt>
      <trkpt lat="48.13842" lon="6.41332">
        <ele>439</ele>
        <time>2024-02-11T16:14:30.000Z</time>
      </trkpt>
      <trkpt lat="48.13839" lon="6.41336">
        <ele>438.79998779297</ele>
        <time>2024-02-11T16:14:32.000Z</time>
      </trkpt>
      <trkpt lat="48.13838" lon="6.41339">
        <ele>438.79998779297</ele>
        <time>2024-02-11T16:14:33.000Z</time>
      </trkpt>
      <trkpt lat="48.13833" lon="6.41341">
        <ele>438.60000610352</ele>
        <time>2024-02-11T16:14:38.000Z</time>
      </trkpt>
      <trkpt lat="48.13829" lon="6.41347">
        <ele>438.20001220703</ele>
        <time>2024-02-11T16:14:44.000Z</time>
      </trkpt>
      <trkpt lat="48.13826" lon="6.4135">
        <ele>438</ele>
        <time>2024-02-11T16:14:46.000Z</time>
      </trkpt>
      <trkpt lat="48.13824" lon="6.41353">
        <ele>437.60000610352</ele>
        <time>2024-02-11T16:14:49.000Z</time>
      </trkpt>
      <trkpt lat="48.13819" lon="6.41361">
        <ele>437.39999389648</ele>
        <time>2024-02-11T16:14:56.000Z</time>
      </trkpt>
      <trkpt lat="48.13815" lon="6.41369">
        <ele>437</ele>
        <time>2024-02-11T16:15:03.000Z</time>
      </trkpt>
      <trkpt lat="48.13814" lon="6.4137">
        <ele>436.79998779297</ele>
        <time>2024-02-11T16:15:05.000Z</time>
      </trkpt>
      <trkpt lat="48.13808" lon="6.41373">
        <ele>436.60000610352</ele>
        <time>2024-02-11T16:15:10.000Z</time>
      </trkpt>
      <trkpt lat="48.13806" lon="6.41376">
        <ele>436.39999389648</ele>
        <time>2024-02-11T16:15:15.000Z</time>
      </trkpt>
      <trkpt lat="48.13804" lon="6.41377">
        <ele>436.20001220703</ele>
        <time>2024-02-11T16:15:18.000Z</time>
      </trkpt>
      <trkpt lat="48.13803" lon="6.41382">
        <ele>436.20001220703</ele>
        <time>2024-02-11T16:15:23.000Z</time>
      </trkpt>
      <trkpt lat="48.13799" lon="6.41385">
        <ele>436.20001220703</ele>
        <time>2024-02-11T16:15:27.000Z</time>
      </trkpt>
      <trkpt lat="48.13798" lon="6.41385">
        <ele>436.20001220703</ele>
        <time>2024-02-11T16:15:28.000Z</time>
      </trkpt>
      <trkpt lat="48.13798" lon="6.41386">
        <ele>435.79998779297</ele>
        <time>2024-02-11T16:15:32.000Z</time>
      </trkpt>
      <trkpt lat="48.13796" lon="6.41387">
        <ele>435.79998779297</ele>
        <time>2024-02-11T16:15:34.000Z</time>
      </trkpt>
      <trkpt lat="48.13791" lon="6.41391">
        <ele>435.60000610352</ele>
        <time>2024-02-11T16:15:38.000Z</time>
      </trkpt>
      <trkpt lat="48.1379" lon="6.41393">
        <ele>435.39999389648</ele>
        <time>2024-02-11T16:15:39.000Z</time>
      </trkpt>
      <trkpt lat="48.13785" lon="6.41403">
        <ele>435</ele>
        <time>2024-02-11T16:15:44.000Z</time>
      </trkpt>
      <trkpt lat="48.13784" lon="6.41406">
        <ele>435</ele>
        <time>2024-02-11T16:15:45.000Z</time>
      </trkpt>
      <trkpt lat="48.13781" lon="6.41407">
        <ele>434.79998779297</ele>
        <time>2024-02-11T16:15:47.000Z</time>
      </trkpt>
      <trkpt lat="48.13778" lon="6.41412">
        <ele>434.60000610352</ele>
        <time>2024-02-11T16:15:51.000Z</time>
      </trkpt>
      <trkpt lat="48.13777" lon="6.41418">
        <ele>434.20001220703</ele>
        <time>2024-02-11T16:15:57.000Z</time>
      </trkpt>
      <trkpt lat="48.13772" lon="6.41423">
        <ele>434.20001220703</ele>
        <time>2024-02-11T16:16:01.000Z</time>
      </trkpt>
      <trkpt lat="48.13771" lon="6.41425">
        <ele>434.20001220703</ele>
        <time>2024-02-11T16:16:02.000Z</time>
      </trkpt>
      <trkpt lat="48.13769" lon="6.41428">
        <ele>434.20001220703</ele>
        <time>2024-02-11T16:16:06.000Z</time>
      </trkpt>
      <trkpt lat="48.13768" lon="6.41429">
        <ele>434.20001220703</ele>
        <time>2024-02-11T16:16:07.000Z</time>
      </trkpt>
      <trkpt lat="48.13762" lon="6.41435">
        <ele>434.39999389648</ele>
        <time>2024-02-11T16:16:13.000Z</time>
      </trkpt>
      <trkpt lat="48.1376" lon="6.41441">
        <ele>434.60000610352</ele>
        <time>2024-02-11T16:16:18.000Z</time>
      </trkpt>
      <trkpt lat="48.13759" lon="6.41446">
        <ele>434.79998779297</ele>
        <time>2024-02-11T16:16:23.000Z</time>
      </trkpt>
      <trkpt lat="48.13758" lon="6.41449">
        <ele>434.79998779297</ele>
        <time>2024-02-11T16:16:25.000Z</time>
      </trkpt>
      <trkpt lat="48.13754" lon="6.41453">
        <ele>434.79998779297</ele>
        <time>2024-02-11T16:16:30.000Z</time>
      </trkpt>
      <trkpt lat="48.13752" lon="6.41456">
        <ele>434.60000610352</ele>
        <time>2024-02-11T16:16:36.000Z</time>
      </trkpt>
      <trkpt lat="48.13749" lon="6.41455">
        <ele>434.39999389648</ele>
        <time>2024-02-11T16:16:39.000Z</time>
      </trkpt>
      <trkpt lat="48.13746" lon="6.41456">
        <ele>433.79998779297</ele>
        <time>2024-02-11T16:16:42.000Z</time>
      </trkpt>
      <trkpt lat="48.13745" lon="6.41455">
        <ele>433.60000610352</ele>
        <time>2024-02-11T16:16:43.000Z</time>
      </trkpt>
      <trkpt lat="48.13746" lon="6.41453">
        <ele>433.60000610352</ele>
        <time>2024-02-11T16:16:44.000Z</time>
      </trkpt>
      <trkpt lat="48.13745" lon="6.41451">
        <ele>433</ele>
        <time>2024-02-11T16:16:46.000Z</time>
      </trkpt>
      <trkpt lat="48.13743" lon="6.4145">
        <ele>432.60000610352</ele>
        <time>2024-02-11T16:16:48.000Z</time>
      </trkpt>
      <trkpt lat="48.13743" lon="6.41448">
        <ele>432</ele>
        <time>2024-02-11T16:16:51.000Z</time>
      </trkpt>
      <trkpt lat="48.13742" lon="6.41448">
        <ele>431.60000610352</ele>
        <time>2024-02-11T16:16:53.000Z</time>
      </trkpt>
      <trkpt lat="48.1374" lon="6.41449">
        <ele>431.39999389648</ele>
        <time>2024-02-11T16:16:55.000Z</time>
      </trkpt>
      <trkpt lat="48.13737" lon="6.41451">
        <ele>430.60000610352</ele>
        <time>2024-02-11T16:16:59.000Z</time>
      </trkpt>
      <trkpt lat="48.13736" lon="6.41449">
        <ele>430.39999389648</ele>
        <time>2024-02-11T16:17:01.000Z</time>
      </trkpt>
      <trkpt lat="48.13733" lon="6.41447">
        <ele>429.60000610352</ele>
        <time>2024-02-11T16:17:05.000Z</time>
      </trkpt>
      <trkpt lat="48.13731" lon="6.41447">
        <ele>429.60000610352</ele>
        <time>2024-02-11T16:17:06.000Z</time>
      </trkpt>
      <trkpt lat="48.13724" lon="6.41451">
        <ele>429</ele>
        <time>2024-02-11T16:17:11.000Z</time>
      </trkpt>
      <trkpt lat="48.13717" lon="6.41457">
        <ele>428.60000610352</ele>
        <time>2024-02-11T16:17:14.000Z</time>
      </trkpt>
      <trkpt lat="48.13715" lon="6.41458">
        <ele>428.39999389648</ele>
        <time>2024-02-11T16:17:15.000Z</time>
      </trkpt>
      <trkpt lat="48.1371" lon="6.41458">
        <ele>428</ele>
        <time>2024-02-11T16:17:18.000Z</time>
      </trkpt>
      <trkpt lat="48.137" lon="6.41458">
        <ele>427.39999389648</ele>
        <time>2024-02-11T16:17:23.000Z</time>
      </trkpt>
      <trkpt lat="48.13691" lon="6.41458">
        <ele>427</ele>
        <time>2024-02-11T16:17:27.000Z</time>
      </trkpt>
      <trkpt lat="48.13685" lon="6.41456">
        <ele>426.60000610352</ele>
        <time>2024-02-11T16:17:31.000Z</time>
      </trkpt>
      <trkpt lat="48.13684" lon="6.41455">
        <ele>426.39999389648</ele>
        <time>2024-02-11T16:17:33.000Z</time>
      </trkpt>
      <trkpt lat="48.13682" lon="6.41453">
        <ele>426.20001220703</ele>
        <time>2024-02-11T16:17:35.000Z</time>
      </trkpt>
      <trkpt lat="48.13672" lon="6.41455">
        <ele>425.60000610352</ele>
        <time>2024-02-11T16:17:39.000Z</time>
      </trkpt>
      <trkpt lat="48.13669" lon="6.41457">
        <ele>425.60000610352</ele>
        <time>2024-02-11T16:17:40.000Z</time>
      </trkpt>
      <trkpt lat="48.13667" lon="6.41456">
        <ele>425.20001220703</ele>
        <time>2024-02-11T16:17:44.000Z</time>
      </trkpt>
      <trkpt lat="48.13665" lon="6.41456">
        <ele>425</ele>
        <time>2024-02-11T16:17:49.000Z</time>
      </trkpt>
      <trkpt lat="48.13667" lon="6.41456">
        <ele>424.20001220703</ele>
        <time>2024-02-11T16:17:54.000Z</time>
      </trkpt>
      <trkpt lat="48.13667" lon="6.41456">
        <ele>424.20001220703</ele>
        <time>2024-02-11T16:17:55.000Z</time>
      </trkpt>
      <trkpt lat="48.13661" lon="6.41453">
        <ele>424.39999389648</ele>
        <time>2024-02-11T16:18:01.000Z</time>
      </trkpt>
      <trkpt lat="48.13655" lon="6.41451">
        <ele>423.60000610352</ele>
        <time>2024-02-11T16:18:07.000Z</time>
      </trkpt>
      <trkpt lat="48.13654" lon="6.41451">
        <ele>423.20001220703</ele>
        <time>2024-02-11T16:18:08.000Z</time>
      </trkpt>
      <trkpt lat="48.13651" lon="6.4145">
        <ele>422.20001220703</ele>
        <time>2024-02-11T16:18:13.000Z</time>
      </trkpt>
      <trkpt lat="48.13647" lon="6.41449">
        <ele>421</ele>
        <time>2024-02-11T16:18:17.000Z</time>
      </trkpt>
      <trkpt lat="48.13647" lon="6.41447">
        <ele>420.60000610352</ele>
        <time>2024-02-11T16:18:18.000Z</time>
      </trkpt>
      <trkpt lat="48.13646" lon="6.41446">
        <ele>420.39999389648</ele>
        <time>2024-02-11T16:18:19.000Z</time>
      </trkpt>
      <trkpt lat="48.13646" lon="6.41444">
        <ele>420</ele>
        <time>2024-02-11T16:18:20.000Z</time>
      </trkpt>
      <trkpt lat="48.13644" lon="6.41442">
        <ele>419.60000610352</ele>
        <time>2024-02-11T16:18:22.000Z</time>
      </trkpt>
      <trkpt lat="48.13642" lon="6.41443">
        <ele>419.20001220703</ele>
        <time>2024-02-11T16:18:24.000Z</time>
      </trkpt>
      <trkpt lat="48.13635" lon="6.41448">
        <ele>418.39999389648</ele>
        <time>2024-02-11T16:18:28.000Z</time>
      </trkpt>
      <trkpt lat="48.13634" lon="6.4145">
        <ele>418.20001220703</ele>
        <time>2024-02-11T16:18:29.000Z</time>
      </trkpt>
      <trkpt lat="48.13633" lon="6.41453">
        <ele>418.20001220703</ele>
        <time>2024-02-11T16:18:31.000Z</time>
      </trkpt>
      <trkpt lat="48.13629" lon="6.41458">
        <ele>418</ele>
        <time>2024-02-11T16:18:34.000Z</time>
      </trkpt>
      <trkpt lat="48.13627" lon="6.4146">
        <ele>418</ele>
        <time>2024-02-11T16:18:35.000Z</time>
      </trkpt>
      <trkpt lat="48.13619" lon="6.4147">
        <ele>417.79998779297</ele>
        <time>2024-02-11T16:18:41.000Z</time>
      </trkpt>
      <trkpt lat="48.13619" lon="6.4147">
        <ele>417.79998779297</ele>
        <time>2024-02-11T16:18:42.000Z</time>
      </trkpt>
      <trkpt lat="48.13617" lon="6.41472">
        <ele>417.79998779297</ele>
        <time>2024-02-11T16:18:47.000Z</time>
      </trkpt>
      <trkpt lat="48.13616" lon="6.41471">
        <ele>417.79998779297</ele>
        <time>2024-02-11T16:18:51.000Z</time>
      </trkpt>
      <trkpt lat="48.13614" lon="6.41482">
        <ele>417.79998779297</ele>
        <time>2024-02-11T16:18:57.000Z</time>
      </trkpt>
      <trkpt lat="48.13613" lon="6.4149">
        <ele>417.60000610352</ele>
        <time>2024-02-11T16:19:00.000Z</time>
      </trkpt>
      <trkpt lat="48.13613" lon="6.41498">
        <ele>417.60000610352</ele>
        <time>2024-02-11T16:19:03.000Z</time>
      </trkpt>
      <trkpt lat="48.13613" lon="6.41501">
        <ele>417.39999389648</ele>
        <time>2024-02-11T16:19:04.000Z</time>
      </trkpt>
      <trkpt lat="48.13613" lon="6.41511">
        <ele>417.20001220703</ele>
        <time>2024-02-11T16:19:10.000Z</time>
      </trkpt>
      <trkpt lat="48.13614" lon="6.41512">
        <ele>417.20001220703</ele>
        <time>2024-02-11T16:19:11.000Z</time>
      </trkpt>
      <trkpt lat="48.13615" lon="6.41514">
        <ele>417.20001220703</ele>
        <time>2024-02-11T16:19:12.000Z</time>
      </trkpt>
      <trkpt lat="48.13615" lon="6.41517">
        <ele>417</ele>
        <time>2024-02-11T16:19:13.000Z</time>
      </trkpt>
      <trkpt lat="48.13615" lon="6.41528">
        <ele>417</ele>
        <time>2024-02-11T16:19:18.000Z</time>
      </trkpt>
      <trkpt lat="48.13617" lon="6.4154">
        <ele>416.60000610352</ele>
        <time>2024-02-11T16:19:24.000Z</time>
      </trkpt>
      <trkpt lat="48.13617" lon="6.41544">
        <ele>416.60000610352</ele>
        <time>2024-02-11T16:19:26.000Z</time>
      </trkpt>
      <trkpt lat="48.13617" lon="6.41552">
        <ele>416.60000610352</ele>
        <time>2024-02-11T16:19:30.000Z</time>
      </trkpt>
      <trkpt lat="48.13618" lon="6.41558">
        <ele>416.39999389648</ele>
        <time>2024-02-11T16:19:34.000Z</time>
      </trkpt>
      <trkpt lat="48.13619" lon="6.41565">
        <ele>416.39999389648</ele>
        <time>2024-02-11T16:19:38.000Z</time>
      </trkpt>
      <trkpt lat="48.1362" lon="6.41577">
        <ele>416</ele>
        <time>2024-02-11T16:19:46.000Z</time>
      </trkpt>
      <trkpt lat="48.13618" lon="6.41593">
        <ele>416</ele>
        <time>2024-02-11T16:19:53.000Z</time>
      </trkpt>
      <trkpt lat="48.13616" lon="6.41599">
        <ele>415.79998779297</ele>
        <time>2024-02-11T16:19:55.000Z</time>
      </trkpt>
      <trkpt lat="48.13619" lon="6.41602">
        <ele>415.79998779297</ele>
        <time>2024-02-11T16:19:58.000Z</time>
      </trkpt>
      <trkpt lat="48.1362" lon="6.41603">
        <ele>415.60000610352</ele>
        <time>2024-02-11T16:19:59.000Z</time>
      </trkpt>
      <trkpt lat="48.13621" lon="6.41611">
        <ele>415.60000610352</ele>
        <time>2024-02-11T16:20:04.000Z</time>
      </trkpt>
      <trkpt lat="48.13621" lon="6.41615">
        <ele>415.39999389648</ele>
        <time>2024-02-11T16:20:07.000Z</time>
      </trkpt>
      <trkpt lat="48.13619" lon="6.41626">
        <ele>415</ele>
        <time>2024-02-11T16:20:14.000Z</time>
      </trkpt>
      <trkpt lat="48.13614" lon="6.41643">
        <ele>415</ele>
        <time>2024-02-11T16:20:24.000Z</time>
      </trkpt>
      <trkpt lat="48.13615" lon="6.41644">
        <ele>415</ele>
        <time>2024-02-11T16:20:25.000Z</time>
      </trkpt>
      <trkpt lat="48.13614" lon="6.41646">
        <ele>415.20001220703</ele>
        <time>2024-02-11T16:20:27.000Z</time>
      </trkpt>
      <trkpt lat="48.13613" lon="6.41651">
        <ele>415.20001220703</ele>
        <time>2024-02-11T16:20:30.000Z</time>
      </trkpt>
      <trkpt lat="48.13609" lon="6.41665">
        <ele>415.60000610352</ele>
        <time>2024-02-11T16:20:39.000Z</time>
      </trkpt>
      <trkpt lat="48.13609" lon="6.41668">
        <ele>415.79998779297</ele>
        <time>2024-02-11T16:20:41.000Z</time>
      </trkpt>
      <trkpt lat="48.13606" lon="6.41674">
        <ele>416</ele>
        <time>2024-02-11T16:20:44.000Z</time>
      </trkpt>
      <trkpt lat="48.13607" lon="6.41676">
        <ele>416</ele>
        <time>2024-02-11T16:20:45.000Z</time>
      </trkpt>
      <trkpt lat="48.13609" lon="6.41679">
        <ele>416</ele>
        <time>2024-02-11T16:20:46.000Z</time>
      </trkpt>
      <trkpt lat="48.13608" lon="6.41684">
        <ele>416.39999389648</ele>
        <time>2024-02-11T16:20:50.000Z</time>
      </trkpt>
      <trkpt lat="48.13608" lon="6.41689">
        <ele>416.60000610352</ele>
        <time>2024-02-11T16:20:53.000Z</time>
      </trkpt>
      <trkpt lat="48.13606" lon="6.41693">
        <ele>416.60000610352</ele>
        <time>2024-02-11T16:20:55.000Z</time>
      </trkpt>
      <trkpt lat="48.13602" lon="6.41705">
        <ele>417.20001220703</ele>
        <time>2024-02-11T16:21:02.000Z</time>
      </trkpt>
      <trkpt lat="48.13603" lon="6.41706">
        <ele>417.39999389648</ele>
        <time>2024-02-11T16:21:03.000Z</time>
      </trkpt>
      <trkpt lat="48.13603" lon="6.41706">
        <ele>417.60000610352</ele>
        <time>2024-02-11T16:21:04.000Z</time>
      </trkpt>
      <trkpt lat="48.13602" lon="6.41708">
        <ele>418.20001220703</ele>
        <time>2024-02-11T16:21:07.000Z</time>
      </trkpt>
      <trkpt lat="48.13602" lon="6.41709">
        <ele>418.60000610352</ele>
        <time>2024-02-11T16:21:08.000Z</time>
      </trkpt>
      <trkpt lat="48.13601" lon="6.4171">
        <ele>418.79998779297</ele>
        <time>2024-02-11T16:21:09.000Z</time>
      </trkpt>
      <trkpt lat="48.136" lon="6.41712">
        <ele>419</ele>
        <time>2024-02-11T16:21:11.000Z</time>
      </trkpt>
      <trkpt lat="48.13599" lon="6.41716">
        <ele>419.39999389648</ele>
        <time>2024-02-11T16:21:14.000Z</time>
      </trkpt>
      <trkpt lat="48.13599" lon="6.41717">
        <ele>419.79998779297</ele>
        <time>2024-02-11T16:21:16.000Z</time>
      </trkpt>
      <trkpt lat="48.13597" lon="6.41721">
        <ele>420.20001220703</ele>
        <time>2024-02-11T16:21:19.000Z</time>
      </trkpt>
      <trkpt lat="48.13598" lon="6.41724">
        <ele>421</ele>
        <time>2024-02-11T16:21:22.000Z</time>
      </trkpt>
      <trkpt lat="48.13598" lon="6.41725">
        <ele>421.20001220703</ele>
        <time>2024-02-11T16:21:23.000Z</time>
      </trkpt>
      <trkpt lat="48.13596" lon="6.4173">
        <ele>421.79998779297</ele>
        <time>2024-02-11T16:21:27.000Z</time>
      </trkpt>
      <trkpt lat="48.13596" lon="6.41732">
        <ele>422</ele>
        <time>2024-02-11T16:21:29.000Z</time>
      </trkpt>
      <trkpt lat="48.13594" lon="6.41738">
        <ele>423</ele>
        <time>2024-02-11T16:21:35.000Z</time>
      </trkpt>
      <trkpt lat="48.13594" lon="6.41739">
        <ele>423.20001220703</ele>
        <time>2024-02-11T16:21:36.000Z</time>
      </trkpt>
      <trkpt lat="48.13593" lon="6.41742">
        <ele>423.60000610352</ele>
        <time>2024-02-11T16:21:40.000Z</time>
      </trkpt>
      <trkpt lat="48.13592" lon="6.41745">
        <ele>424.20001220703</ele>
        <time>2024-02-11T16:21:43.000Z</time>
      </trkpt>
      <trkpt lat="48.13591" lon="6.41749">
        <ele>424.79998779297</ele>
        <time>2024-02-11T16:21:46.000Z</time>
      </trkpt>
      <trkpt lat="48.13591" lon="6.41751">
        <ele>425</ele>
        <time>2024-02-11T16:21:47.000Z</time>
      </trkpt>
      <trkpt lat="48.13587" lon="6.41754">
        <ele>425.39999389648</ele>
        <time>2024-02-11T16:21:49.000Z</time>
      </trkpt>
      <trkpt lat="48.13586" lon="6.41757">
        <ele>425.79998779297</ele>
        <time>2024-02-11T16:21:52.000Z</time>
      </trkpt>
      <trkpt lat="48.13586" lon="6.41758">
        <ele>426</ele>
        <time>2024-02-11T16:21:53.000Z</time>
      </trkpt>
      <trkpt lat="48.13584" lon="6.41763">
        <ele>426.39999389648</ele>
        <time>2024-02-11T16:21:57.000Z</time>
      </trkpt>
      <trkpt lat="48.13581" lon="6.41765">
        <ele>426.79998779297</ele>
        <time>2024-02-11T16:21:59.000Z</time>
      </trkpt>
      <trkpt lat="48.13579" lon="6.41772">
        <ele>427.39999389648</ele>
        <time>2024-02-11T16:22:04.000Z</time>
      </trkpt>
      <trkpt lat="48.13579" lon="6.41772">
        <ele>427.60000610352</ele>
        <time>2024-02-11T16:22:05.000Z</time>
      </trkpt>
      <trkpt lat="48.13578" lon="6.41774">
        <ele>428.60000610352</ele>
        <time>2024-02-11T16:22:12.000Z</time>
      </trkpt>
      <trkpt lat="48.13571" lon="6.41782">
        <ele>429.60000610352</ele>
        <time>2024-02-11T16:22:21.000Z</time>
      </trkpt>
      <trkpt lat="48.13568" lon="6.41785">
        <ele>430.20001220703</ele>
        <time>2024-02-11T16:22:24.000Z</time>
      </trkpt>
      <trkpt lat="48.13563" lon="6.4179">
        <ele>430.79998779297</ele>
        <time>2024-02-11T16:22:28.000Z</time>
      </trkpt>
      <trkpt lat="48.13562" lon="6.41791">
        <ele>431</ele>
        <time>2024-02-11T16:22:29.000Z</time>
      </trkpt>
      <trkpt lat="48.13559" lon="6.41794">
        <ele>431.79998779297</ele>
        <time>2024-02-11T16:22:34.000Z</time>
      </trkpt>
      <trkpt lat="48.13558" lon="6.41794">
        <ele>431.79998779297</ele>
        <time>2024-02-11T16:22:35.000Z</time>
      </trkpt>
      <trkpt lat="48.13552" lon="6.41802">
        <ele>432.60000610352</ele>
        <time>2024-02-11T16:22:41.000Z</time>
      </trkpt>
      <trkpt lat="48.13551" lon="6.41803">
        <ele>433</ele>
        <time>2024-02-11T16:22:44.000Z</time>
      </trkpt>
      <trkpt lat="48.1355" lon="6.41804">
        <ele>433</ele>
        <time>2024-02-11T16:22:46.000Z</time>
      </trkpt>
      <trkpt lat="48.13544" lon="6.41812">
        <ele>433.79998779297</ele>
        <time>2024-02-11T16:22:52.000Z</time>
      </trkpt>
      <trkpt lat="48.13542" lon="6.41813">
        <ele>434</ele>
        <time>2024-02-11T16:22:53.000Z</time>
      </trkpt>
      <trkpt lat="48.1354" lon="6.41814">
        <ele>434</ele>
        <time>2024-02-11T16:22:54.000Z</time>
      </trkpt>
      <trkpt lat="48.13537" lon="6.41817">
        <ele>434.39999389648</ele>
        <time>2024-02-11T16:23:01.000Z</time>
      </trkpt>
      <trkpt lat="48.13532" lon="6.41821">
        <ele>435</ele>
        <time>2024-02-11T16:23:07.000Z</time>
      </trkpt>
      <trkpt lat="48.1353" lon="6.41823">
        <ele>435.39999389648</ele>
        <time>2024-02-11T16:23:11.000Z</time>
      </trkpt>
      <trkpt lat="48.13519" lon="6.41829">
        <ele>435.60000610352</ele>
        <time>2024-02-11T16:23:17.000Z</time>
      </trkpt>
      <trkpt lat="48.13519" lon="6.41828">
        <ele>435.79998779297</ele>
        <time>2024-02-11T16:23:19.000Z</time>
      </trkpt>
      <trkpt lat="48.13518" lon="6.41827">
        <ele>436</ele>
        <time>2024-02-11T16:23:20.000Z</time>
      </trkpt>
      <trkpt lat="48.13516" lon="6.41828">
        <ele>436.60000610352</ele>
        <time>2024-02-11T16:23:26.000Z</time>
      </trkpt>
      <trkpt lat="48.13512" lon="6.41829">
        <ele>436.79998779297</ele>
        <time>2024-02-11T16:23:30.000Z</time>
      </trkpt>
      <trkpt lat="48.13511" lon="6.4183">
        <ele>437</ele>
        <time>2024-02-11T16:23:32.000Z</time>
      </trkpt>
      <trkpt lat="48.1351" lon="6.41829">
        <ele>437</ele>
        <time>2024-02-11T16:23:34.000Z</time>
      </trkpt>
      <trkpt lat="48.13507" lon="6.41829">
        <ele>437.20001220703</ele>
        <time>2024-02-11T16:23:37.000Z</time>
      </trkpt>
      <trkpt lat="48.13504" lon="6.41832">
        <ele>437.39999389648</ele>
        <time>2024-02-11T16:23:41.000Z</time>
      </trkpt>
      <trkpt lat="48.13496" lon="6.41831">
        <ele>437.60000610352</ele>
        <time>2024-02-11T16:23:46.000Z</time>
      </trkpt>
      <trkpt lat="48.13484" lon="6.41832">
        <ele>437.60000610352</ele>
        <time>2024-02-11T16:23:53.000Z</time>
      </trkpt>
      <trkpt lat="48.13476" lon="6.41834">
        <ele>437.79998779297</ele>
        <time>2024-02-11T16:23:59.000Z</time>
      </trkpt>
      <trkpt lat="48.13468" lon="6.41833">
        <ele>438</ele>
        <time>2024-02-11T16:24:06.000Z</time>
      </trkpt>
      <trkpt lat="48.13466" lon="6.41833">
        <ele>438.20001220703</ele>
        <time>2024-02-11T16:24:07.000Z</time>
      </trkpt>
      <trkpt lat="48.1346" lon="6.41831">
        <ele>437.79998779297</ele>
        <time>2024-02-11T16:24:14.000Z</time>
      </trkpt>
      <trkpt lat="48.13457" lon="6.4183">
        <ele>437.39999389648</ele>
        <time>2024-02-11T16:24:16.000Z</time>
      </trkpt>
      <trkpt lat="48.13455" lon="6.41828">
        <ele>436.79998779297</ele>
        <time>2024-02-11T16:24:18.000Z</time>
      </trkpt>
      <trkpt lat="48.13452" lon="6.41824">
        <ele>436.39999389648</ele>
        <time>2024-02-11T16:24:21.000Z</time>
      </trkpt>
      <trkpt lat="48.13449" lon="6.41821">
        <ele>436</ele>
        <time>2024-02-11T16:24:23.000Z</time>
      </trkpt>
      <trkpt lat="48.13447" lon="6.41819">
        <ele>435.79998779297</ele>
        <time>2024-02-11T16:24:25.000Z</time>
      </trkpt>
      <trkpt lat="48.13445" lon="6.41818">
        <ele>435.60000610352</ele>
        <time>2024-02-11T16:24:26.000Z</time>
      </trkpt>
      <trkpt lat="48.13442" lon="6.41815">
        <ele>435.39999389648</ele>
        <time>2024-02-11T16:24:28.000Z</time>
      </trkpt>
      <trkpt lat="48.13437" lon="6.41804">
        <ele>435.20001220703</ele>
        <time>2024-02-11T16:24:35.000Z</time>
      </trkpt>
      <trkpt lat="48.13434" lon="6.41801">
        <ele>434.79998779297</ele>
        <time>2024-02-11T16:24:38.000Z</time>
      </trkpt>
      <trkpt lat="48.13432" lon="6.418">
        <ele>434.79998779297</ele>
        <time>2024-02-11T16:24:40.000Z</time>
      </trkpt>
      <trkpt lat="48.13426" lon="6.41798">
        <ele>434.60000610352</ele>
        <time>2024-02-11T16:24:45.000Z</time>
      </trkpt>
      <trkpt lat="48.13425" lon="6.41798">
        <ele>434.60000610352</ele>
        <time>2024-02-11T16:24:46.000Z</time>
      </trkpt>
      <trkpt lat="48.1342" lon="6.41796">
        <ele>434.60000610352</ele>
        <time>2024-02-11T16:24:52.000Z</time>
      </trkpt>
      <trkpt lat="48.13418" lon="6.41796">
        <ele>434.60000610352</ele>
        <time>2024-02-11T16:24:54.000Z</time>
      </trkpt>
      <trkpt lat="48.13413" lon="6.41798">
        <ele>434.60000610352</ele>
        <time>2024-02-11T16:24:58.000Z</time>
      </trkpt>
      <trkpt lat="48.13403" lon="6.418">
        <ele>434.60000610352</ele>
        <time>2024-02-11T16:25:06.000Z</time>
      </trkpt>
      <trkpt lat="48.13402" lon="6.418">
        <ele>434.60000610352</ele>
        <time>2024-02-11T16:25:07.000Z</time>
      </trkpt>
      <trkpt lat="48.13399" lon="6.41799">
        <ele>434.60000610352</ele>
        <time>2024-02-11T16:25:09.000Z</time>
      </trkpt>
      <trkpt lat="48.13396" lon="6.41798">
        <ele>434.20001220703</ele>
        <time>2024-02-11T16:25:11.000Z</time>
      </trkpt>
      <trkpt lat="48.13395" lon="6.41797">
        <ele>434</ele>
        <time>2024-02-11T16:25:12.000Z</time>
      </trkpt>
      <trkpt lat="48.13395" lon="6.41796">
        <ele>434</ele>
        <time>2024-02-11T16:25:13.000Z</time>
      </trkpt>
      <trkpt lat="48.13394" lon="6.41796">
        <ele>433.79998779297</ele>
        <time>2024-02-11T16:25:14.000Z</time>
      </trkpt>
      <trkpt lat="48.13391" lon="6.41795">
        <ele>433.60000610352</ele>
        <time>2024-02-11T16:25:16.000Z</time>
      </trkpt>
      <trkpt lat="48.13387" lon="6.4179">
        <ele>433.39999389648</ele>
        <time>2024-02-11T16:25:19.000Z</time>
      </trkpt>
      <trkpt lat="48.13384" lon="6.41779">
        <ele>433</ele>
        <time>2024-02-11T16:25:25.000Z</time>
      </trkpt>
      <trkpt lat="48.13382" lon="6.4177">
        <ele>433.20001220703</ele>
        <time>2024-02-11T16:25:31.000Z</time>
      </trkpt>
      <trkpt lat="48.13381" lon="6.41768">
        <ele>433.20001220703</ele>
        <time>2024-02-11T16:25:32.000Z</time>
      </trkpt>
      <trkpt lat="48.13382" lon="6.41762">
        <ele>433.79998779297</ele>
        <time>2024-02-11T16:25:38.000Z</time>
      </trkpt>
      <trkpt lat="48.13382" lon="6.41763">
        <ele>433.79998779297</ele>
        <time>2024-02-11T16:25:39.000Z</time>
      </trkpt>
      <trkpt lat="48.13381" lon="6.41762">
        <ele>434.20001220703</ele>
        <time>2024-02-11T16:25:44.000Z</time>
      </trkpt>
      <trkpt lat="48.13381" lon="6.41761">
        <ele>434.20001220703</ele>
        <time>2024-02-11T16:25:45.000Z</time>
      </trkpt>
    </trkseg>
  </trk>
</gpx>